<?xml version="1.0" encoding="UTF-8" standalone="no" ?>
<gpx xmlns="http://www.topografix.com/GPX/1/1" xmlns:xsi="http://www.w3.org/2001/XMLSchema-instance" xsi:schemaLocation="http://www.topografix.com/GPX/1/1 http://www.topografix.com/GPX/1/1/gpx.xsd" version="1.1" creator="VisuGPX - https://www.visugpx.com">
  <metadata>
    <name>SRN - Les crêtes de la Molières</name>
    <desc><![CDATA[Très belle rando pas dure avec des vues superbes sur les sommets environnants.]]></desc>
  </metadata>
  <trk>
    <name><![CDATA[02-JAN-15 13:50:38]]></name>
    <trkseg>
      <trkpt lat="45.16377" lon="5.59711">
        <ele>1138.34</ele>
        <time>2015-01-02T08:56:42Z</time>
      </trkpt>
      <trkpt lat="45.16379" lon="5.5971">
        <ele>1137.86</ele>
        <time>2015-01-02T08:57:07Z</time>
      </trkpt>
      <trkpt lat="45.16379" lon="5.5971">
        <ele>1141.22</ele>
        <time>2015-01-02T08:57:08Z</time>
      </trkpt>
      <trkpt lat="45.16379" lon="5.5971">
        <ele>1145.07</ele>
        <time>2015-01-02T08:57:09Z</time>
      </trkpt>
      <trkpt lat="45.16379" lon="5.5971">
        <ele>1148.43</ele>
        <time>2015-01-02T08:57:10Z</time>
      </trkpt>
      <trkpt lat="45.16379" lon="5.5971">
        <ele>1151.8</ele>
        <time>2015-01-02T08:57:11Z</time>
      </trkpt>
      <trkpt lat="45.16379" lon="5.5971">
        <ele>1155.16</ele>
        <time>2015-01-02T08:57:12Z</time>
      </trkpt>
      <trkpt lat="45.16379" lon="5.5971">
        <ele>1158.53</ele>
        <time>2015-01-02T08:57:13Z</time>
      </trkpt>
      <trkpt lat="45.16379" lon="5.59711">
        <ele>1164.29</ele>
        <time>2015-01-02T08:57:15Z</time>
      </trkpt>
      <trkpt lat="45.16379" lon="5.59712">
        <ele>1169.58</ele>
        <time>2015-01-02T08:57:17Z</time>
      </trkpt>
      <trkpt lat="45.16379" lon="5.59711">
        <ele>1174.39</ele>
        <time>2015-01-02T08:57:19Z</time>
      </trkpt>
      <trkpt lat="45.16378" lon="5.5971">
        <ele>1177.75</ele>
        <time>2015-01-02T08:57:20Z</time>
      </trkpt>
      <trkpt lat="45.16378" lon="5.59709">
        <ele>1182.08</ele>
        <time>2015-01-02T08:57:22Z</time>
      </trkpt>
      <trkpt lat="45.16377" lon="5.59708">
        <ele>1186.88</ele>
        <time>2015-01-02T08:57:24Z</time>
      </trkpt>
      <trkpt lat="45.16376" lon="5.59707">
        <ele>1191.21</ele>
        <time>2015-01-02T08:57:26Z</time>
      </trkpt>
      <trkpt lat="45.16375" lon="5.59706">
        <ele>1195.06</ele>
        <time>2015-01-02T08:57:28Z</time>
      </trkpt>
      <trkpt lat="45.16374" lon="5.59704">
        <ele>1200.82</ele>
        <time>2015-01-02T08:57:31Z</time>
      </trkpt>
      <trkpt lat="45.16373" lon="5.59702">
        <ele>1205.63</ele>
        <time>2015-01-02T08:57:34Z</time>
      </trkpt>
      <trkpt lat="45.16372" lon="5.597">
        <ele>1208.51</ele>
        <time>2015-01-02T08:57:36Z</time>
      </trkpt>
      <trkpt lat="45.16371" lon="5.59698">
        <ele>1211.88</ele>
        <time>2015-01-02T08:57:38Z</time>
      </trkpt>
      <trkpt lat="45.16369" lon="5.59696">
        <ele>1216.21</ele>
        <time>2015-01-02T08:57:41Z</time>
      </trkpt>
      <trkpt lat="45.16367" lon="5.59693">
        <ele>1220.05</ele>
        <time>2015-01-02T08:57:44Z</time>
      </trkpt>
      <trkpt lat="45.16367" lon="5.59689">
        <ele>1222.93</ele>
        <time>2015-01-02T08:57:47Z</time>
      </trkpt>
      <trkpt lat="45.16366" lon="5.59688">
        <ele>1226.3</ele>
        <time>2015-01-02T08:57:50Z</time>
      </trkpt>
      <trkpt lat="45.16366" lon="5.59687">
        <ele>1226.3</ele>
        <time>2015-01-02T08:57:51Z</time>
      </trkpt>
      <trkpt lat="45.16365" lon="5.59683">
        <ele>1231.11</ele>
        <time>2015-01-02T08:57:55Z</time>
      </trkpt>
      <trkpt lat="45.16363" lon="5.59679">
        <ele>1233.99</ele>
        <time>2015-01-02T08:57:59Z</time>
      </trkpt>
      <trkpt lat="45.16363" lon="5.59677">
        <ele>1235.91</ele>
        <time>2015-01-02T08:58:01Z</time>
      </trkpt>
      <trkpt lat="45.16361" lon="5.59674">
        <ele>1237.83</ele>
        <time>2015-01-02T08:58:04Z</time>
      </trkpt>
      <trkpt lat="45.1636" lon="5.59671">
        <ele>1239.76</ele>
        <time>2015-01-02T08:58:07Z</time>
      </trkpt>
      <trkpt lat="45.1636" lon="5.59668">
        <ele>1241.2</ele>
        <time>2015-01-02T08:58:09Z</time>
      </trkpt>
      <trkpt lat="45.16358" lon="5.59665">
        <ele>1243.12</ele>
        <time>2015-01-02T08:58:12Z</time>
      </trkpt>
      <trkpt lat="45.16356" lon="5.59663">
        <ele>1244.56</ele>
        <time>2015-01-02T08:58:15Z</time>
      </trkpt>
      <trkpt lat="45.16354" lon="5.59661">
        <ele>1246.01</ele>
        <time>2015-01-02T08:58:18Z</time>
      </trkpt>
      <trkpt lat="45.16354" lon="5.5966">
        <ele>1246.49</ele>
        <time>2015-01-02T08:58:19Z</time>
      </trkpt>
      <trkpt lat="45.16353" lon="5.59657">
        <ele>1246.97</ele>
        <time>2015-01-02T08:58:21Z</time>
      </trkpt>
      <trkpt lat="45.16349" lon="5.5965">
        <ele>1250.81</ele>
        <time>2015-01-02T08:58:30Z</time>
      </trkpt>
      <trkpt lat="45.16346" lon="5.59643">
        <ele>1252.74</ele>
        <time>2015-01-02T08:58:36Z</time>
      </trkpt>
      <trkpt lat="45.16339" lon="5.59629">
        <ele>1255.14</ele>
        <time>2015-01-02T08:58:52Z</time>
      </trkpt>
      <trkpt lat="45.16329" lon="5.59618">
        <ele>1256.1</ele>
        <time>2015-01-02T08:59:06Z</time>
      </trkpt>
      <trkpt lat="45.16322" lon="5.59607">
        <ele>1257.06</ele>
        <time>2015-01-02T08:59:19Z</time>
      </trkpt>
      <trkpt lat="45.16312" lon="5.59595">
        <ele>1258.98</ele>
        <time>2015-01-02T08:59:35Z</time>
      </trkpt>
      <trkpt lat="45.16307" lon="5.59588">
        <ele>1259.94</ele>
        <time>2015-01-02T08:59:50Z</time>
      </trkpt>
      <trkpt lat="45.16298" lon="5.59576">
        <ele>1260.43</ele>
        <time>2015-01-02T09:00:04Z</time>
      </trkpt>
      <trkpt lat="45.1629" lon="5.59567">
        <ele>1262.35</ele>
        <time>2015-01-02T09:00:16Z</time>
      </trkpt>
      <trkpt lat="45.16282" lon="5.5956">
        <ele>1262.83</ele>
        <time>2015-01-02T09:00:30Z</time>
      </trkpt>
      <trkpt lat="45.1627" lon="5.59551">
        <ele>1264.27</ele>
        <time>2015-01-02T09:00:48Z</time>
      </trkpt>
      <trkpt lat="45.16259" lon="5.59545">
        <ele>1266.19</ele>
        <time>2015-01-02T09:01:03Z</time>
      </trkpt>
      <trkpt lat="45.16252" lon="5.5954">
        <ele>1267.16</ele>
        <time>2015-01-02T09:01:15Z</time>
      </trkpt>
      <trkpt lat="45.16247" lon="5.59536">
        <ele>1268.6</ele>
        <time>2015-01-02T09:01:24Z</time>
      </trkpt>
      <trkpt lat="45.16245" lon="5.59534">
        <ele>1268.6</ele>
        <time>2015-01-02T09:01:27Z</time>
      </trkpt>
      <trkpt lat="45.16236" lon="5.59526">
        <ele>1269.56</ele>
        <time>2015-01-02T09:01:40Z</time>
      </trkpt>
      <trkpt lat="45.16228" lon="5.59519">
        <ele>1270.04</ele>
        <time>2015-01-02T09:01:52Z</time>
      </trkpt>
      <trkpt lat="45.16219" lon="5.59508">
        <ele>1271.48</ele>
        <time>2015-01-02T09:02:06Z</time>
      </trkpt>
      <trkpt lat="45.16212" lon="5.59497">
        <ele>1272.92</ele>
        <time>2015-01-02T09:02:20Z</time>
      </trkpt>
      <trkpt lat="45.16207" lon="5.59486">
        <ele>1274.85</ele>
        <time>2015-01-02T09:02:34Z</time>
      </trkpt>
      <trkpt lat="45.16202" lon="5.59474">
        <ele>1275.81</ele>
        <time>2015-01-02T09:02:48Z</time>
      </trkpt>
      <trkpt lat="45.16196" lon="5.59457">
        <ele>1277.73</ele>
        <time>2015-01-02T09:03:06Z</time>
      </trkpt>
      <trkpt lat="45.16194" lon="5.59442">
        <ele>1278.69</ele>
        <time>2015-01-02T09:03:20Z</time>
      </trkpt>
      <trkpt lat="45.16187" lon="5.59429">
        <ele>1280.13</ele>
        <time>2015-01-02T09:03:35Z</time>
      </trkpt>
      <trkpt lat="45.16179" lon="5.59417">
        <ele>1281.57</ele>
        <time>2015-01-02T09:03:49Z</time>
      </trkpt>
      <trkpt lat="45.16173" lon="5.59405">
        <ele>1283.98</ele>
        <time>2015-01-02T09:04:04Z</time>
      </trkpt>
      <trkpt lat="45.16167" lon="5.59398">
        <ele>1284.94</ele>
        <time>2015-01-02T09:04:14Z</time>
      </trkpt>
      <trkpt lat="45.16161" lon="5.59387">
        <ele>1285.9</ele>
        <time>2015-01-02T09:04:26Z</time>
      </trkpt>
      <trkpt lat="45.16153" lon="5.59372">
        <ele>1287.34</ele>
        <time>2015-01-02T09:04:40Z</time>
      </trkpt>
      <trkpt lat="45.16149" lon="5.5936">
        <ele>1287.82</ele>
        <time>2015-01-02T09:04:51Z</time>
      </trkpt>
      <trkpt lat="45.16145" lon="5.59351">
        <ele>1288.3</ele>
        <time>2015-01-02T09:05:01Z</time>
      </trkpt>
      <trkpt lat="45.1614" lon="5.59341">
        <ele>1289.27</ele>
        <time>2015-01-02T09:05:15Z</time>
      </trkpt>
      <trkpt lat="45.1614" lon="5.59341">
        <ele>1289.75</ele>
        <time>2015-01-02T09:05:47Z</time>
      </trkpt>
      <trkpt lat="45.16138" lon="5.59327">
        <ele>1290.71</ele>
        <time>2015-01-02T09:06:02Z</time>
      </trkpt>
      <trkpt lat="45.16129" lon="5.59314">
        <ele>1292.15</ele>
        <time>2015-01-02T09:06:19Z</time>
      </trkpt>
      <trkpt lat="45.16122" lon="5.59312">
        <ele>1293.11</ele>
        <time>2015-01-02T09:06:34Z</time>
      </trkpt>
      <trkpt lat="45.1611" lon="5.59309">
        <ele>1295.51</ele>
        <time>2015-01-02T09:06:52Z</time>
      </trkpt>
      <trkpt lat="45.16101" lon="5.59309">
        <ele>1297.44</ele>
        <time>2015-01-02T09:07:05Z</time>
      </trkpt>
      <trkpt lat="45.1608" lon="5.5929">
        <ele>1299.36</ele>
        <time>2015-01-02T09:07:22Z</time>
      </trkpt>
      <trkpt lat="45.16068" lon="5.59282">
        <ele>1300.8</ele>
        <time>2015-01-02T09:07:37Z</time>
      </trkpt>
      <trkpt lat="45.16059" lon="5.59275">
        <ele>1302.24</ele>
        <time>2015-01-02T09:07:51Z</time>
      </trkpt>
      <trkpt lat="45.16049" lon="5.59265">
        <ele>1304.65</ele>
        <time>2015-01-02T09:08:04Z</time>
      </trkpt>
      <trkpt lat="45.16037" lon="5.59258">
        <ele>1306.57</ele>
        <time>2015-01-02T09:08:20Z</time>
      </trkpt>
      <trkpt lat="45.16029" lon="5.5925">
        <ele>1306.57</ele>
        <time>2015-01-02T09:08:33Z</time>
      </trkpt>
      <trkpt lat="45.16025" lon="5.59245">
        <ele>1308.01</ele>
        <time>2015-01-02T09:08:43Z</time>
      </trkpt>
      <trkpt lat="45.16019" lon="5.59237">
        <ele>1309.45</ele>
        <time>2015-01-02T09:08:56Z</time>
      </trkpt>
      <trkpt lat="45.16014" lon="5.59229">
        <ele>1311.38</ele>
        <time>2015-01-02T09:09:07Z</time>
      </trkpt>
      <trkpt lat="45.1601" lon="5.5922">
        <ele>1311.86</ele>
        <time>2015-01-02T09:09:19Z</time>
      </trkpt>
      <trkpt lat="45.1601" lon="5.5922">
        <ele>1311.86</ele>
        <time>2015-01-02T09:09:44Z</time>
      </trkpt>
      <trkpt lat="45.16009" lon="5.59219">
        <ele>1311.86</ele>
        <time>2015-01-02T09:10:12Z</time>
      </trkpt>
      <trkpt lat="45.16009" lon="5.59219">
        <ele>1311.86</ele>
        <time>2015-01-02T09:10:40Z</time>
      </trkpt>
      <trkpt lat="45.16009" lon="5.59217">
        <ele>1312.34</ele>
        <time>2015-01-02T09:11:06Z</time>
      </trkpt>
      <trkpt lat="45.16016" lon="5.59211">
        <ele>1313.3</ele>
        <time>2015-01-02T09:11:19Z</time>
      </trkpt>
      <trkpt lat="45.16018" lon="5.59212">
        <ele>1313.3</ele>
        <time>2015-01-02T09:11:40Z</time>
      </trkpt>
      <trkpt lat="45.16023" lon="5.59217">
        <ele>1314.26</ele>
        <time>2015-01-02T09:11:52Z</time>
      </trkpt>
      <trkpt lat="45.16026" lon="5.59221">
        <ele>1315.22</ele>
        <time>2015-01-02T09:11:57Z</time>
      </trkpt>
      <trkpt lat="45.16028" lon="5.59223">
        <ele>1314.26</ele>
        <time>2015-01-02T09:11:59Z</time>
      </trkpt>
      <trkpt lat="45.16036" lon="5.59227">
        <ele>1316.18</ele>
        <time>2015-01-02T09:12:09Z</time>
      </trkpt>
      <trkpt lat="45.16041" lon="5.59232">
        <ele>1316.66</ele>
        <time>2015-01-02T09:12:24Z</time>
      </trkpt>
      <trkpt lat="45.16041" lon="5.59233">
        <ele>1316.66</ele>
        <time>2015-01-02T09:12:46Z</time>
      </trkpt>
      <trkpt lat="45.16041" lon="5.59233">
        <ele>1317.14</ele>
        <time>2015-01-02T09:13:08Z</time>
      </trkpt>
      <trkpt lat="45.16041" lon="5.59233">
        <ele>1316.66</ele>
        <time>2015-01-02T09:13:37Z</time>
      </trkpt>
      <trkpt lat="45.16041" lon="5.59233">
        <ele>1317.14</ele>
        <time>2015-01-02T09:14:09Z</time>
      </trkpt>
      <trkpt lat="45.16041" lon="5.59233">
        <ele>1317.14</ele>
        <time>2015-01-02T09:14:37Z</time>
      </trkpt>
      <trkpt lat="45.16039" lon="5.59231">
        <ele>1316.66</ele>
        <time>2015-01-02T09:14:45Z</time>
      </trkpt>
      <trkpt lat="45.16017" lon="5.59211">
        <ele>1313.78</ele>
        <time>2015-01-02T09:15:00Z</time>
      </trkpt>
      <trkpt lat="45.16008" lon="5.59216">
        <ele>1312.34</ele>
        <time>2015-01-02T09:15:07Z</time>
      </trkpt>
      <trkpt lat="45.16014" lon="5.5923">
        <ele>1310.9</ele>
        <time>2015-01-02T09:15:20Z</time>
      </trkpt>
      <trkpt lat="45.16014" lon="5.5923">
        <ele>1310.9</ele>
        <time>2015-01-02T09:15:44Z</time>
      </trkpt>
      <trkpt lat="45.16014" lon="5.5923">
        <ele>1311.38</ele>
        <time>2015-01-02T09:16:13Z</time>
      </trkpt>
      <trkpt lat="45.16014" lon="5.5923">
        <ele>1311.38</ele>
        <time>2015-01-02T09:16:43Z</time>
      </trkpt>
      <trkpt lat="45.16014" lon="5.5923">
        <ele>1311.38</ele>
        <time>2015-01-02T09:17:11Z</time>
      </trkpt>
      <trkpt lat="45.16013" lon="5.59232">
        <ele>1311.86</ele>
        <time>2015-01-02T09:17:34Z</time>
      </trkpt>
      <trkpt lat="45.16008" lon="5.59215">
        <ele>1313.78</ele>
        <time>2015-01-02T09:17:50Z</time>
      </trkpt>
      <trkpt lat="45.16011" lon="5.59209">
        <ele>1313.78</ele>
        <time>2015-01-02T09:18:06Z</time>
      </trkpt>
      <trkpt lat="45.16017" lon="5.59209">
        <ele>1314.26</ele>
        <time>2015-01-02T09:18:21Z</time>
      </trkpt>
      <trkpt lat="45.16026" lon="5.59218">
        <ele>1315.7</ele>
        <time>2015-01-02T09:18:33Z</time>
      </trkpt>
      <trkpt lat="45.16035" lon="5.59226">
        <ele>1316.18</ele>
        <time>2015-01-02T09:18:47Z</time>
      </trkpt>
      <trkpt lat="45.16045" lon="5.59231">
        <ele>1319.07</ele>
        <time>2015-01-02T09:19:00Z</time>
      </trkpt>
      <trkpt lat="45.1605" lon="5.59232">
        <ele>1318.59</ele>
        <time>2015-01-02T09:19:13Z</time>
      </trkpt>
      <trkpt lat="45.1605" lon="5.59232">
        <ele>1318.59</ele>
        <time>2015-01-02T09:19:35Z</time>
      </trkpt>
      <trkpt lat="45.1605" lon="5.59232">
        <ele>1318.59</ele>
        <time>2015-01-02T09:20:00Z</time>
      </trkpt>
      <trkpt lat="45.1605" lon="5.59232">
        <ele>1319.55</ele>
        <time>2015-01-02T09:20:23Z</time>
      </trkpt>
      <trkpt lat="45.1605" lon="5.59232">
        <ele>1318.59</ele>
        <time>2015-01-02T09:20:47Z</time>
      </trkpt>
      <trkpt lat="45.1605" lon="5.59232">
        <ele>1318.59</ele>
        <time>2015-01-02T09:21:13Z</time>
      </trkpt>
      <trkpt lat="45.1605" lon="5.59232">
        <ele>1318.59</ele>
        <time>2015-01-02T09:21:36Z</time>
      </trkpt>
      <trkpt lat="45.1605" lon="5.59232">
        <ele>1318.59</ele>
        <time>2015-01-02T09:22:00Z</time>
      </trkpt>
      <trkpt lat="45.16049" lon="5.59232">
        <ele>1318.59</ele>
        <time>2015-01-02T09:22:28Z</time>
      </trkpt>
      <trkpt lat="45.16049" lon="5.59232">
        <ele>1318.59</ele>
        <time>2015-01-02T09:22:50Z</time>
      </trkpt>
      <trkpt lat="45.16059" lon="5.59232">
        <ele>1320.51</ele>
        <time>2015-01-02T09:23:05Z</time>
      </trkpt>
      <trkpt lat="45.16069" lon="5.59233">
        <ele>1321.95</ele>
        <time>2015-01-02T09:23:18Z</time>
      </trkpt>
      <trkpt lat="45.16071" lon="5.59233">
        <ele>1323.87</ele>
        <time>2015-01-02T09:23:30Z</time>
      </trkpt>
      <trkpt lat="45.16083" lon="5.5923">
        <ele>1324.35</ele>
        <time>2015-01-02T09:23:42Z</time>
      </trkpt>
      <trkpt lat="45.16101" lon="5.59227">
        <ele>1325.8</ele>
        <time>2015-01-02T09:23:54Z</time>
      </trkpt>
      <trkpt lat="45.16112" lon="5.59229">
        <ele>1328.68</ele>
        <time>2015-01-02T09:24:06Z</time>
      </trkpt>
      <trkpt lat="45.16125" lon="5.59229">
        <ele>1330.12</ele>
        <time>2015-01-02T09:24:19Z</time>
      </trkpt>
      <trkpt lat="45.1613" lon="5.59229">
        <ele>1331.56</ele>
        <time>2015-01-02T09:24:25Z</time>
      </trkpt>
      <trkpt lat="45.16142" lon="5.59227">
        <ele>1332.52</ele>
        <time>2015-01-02T09:24:39Z</time>
      </trkpt>
      <trkpt lat="45.16155" lon="5.59227">
        <ele>1334.45</ele>
        <time>2015-01-02T09:24:52Z</time>
      </trkpt>
      <trkpt lat="45.16168" lon="5.59232">
        <ele>1336.85</ele>
        <time>2015-01-02T09:25:06Z</time>
      </trkpt>
      <trkpt lat="45.16176" lon="5.59236">
        <ele>1338.29</ele>
        <time>2015-01-02T09:25:19Z</time>
      </trkpt>
      <trkpt lat="45.16183" lon="5.59246">
        <ele>1340.22</ele>
        <time>2015-01-02T09:25:30Z</time>
      </trkpt>
      <trkpt lat="45.16191" lon="5.59257">
        <ele>1341.18</ele>
        <time>2015-01-02T09:25:44Z</time>
      </trkpt>
      <trkpt lat="45.16196" lon="5.59259">
        <ele>1343.1</ele>
        <time>2015-01-02T09:25:55Z</time>
      </trkpt>
      <trkpt lat="45.16202" lon="5.59262">
        <ele>1344.54</ele>
        <time>2015-01-02T09:26:08Z</time>
      </trkpt>
      <trkpt lat="45.16212" lon="5.59265">
        <ele>1346.94</ele>
        <time>2015-01-02T09:26:21Z</time>
      </trkpt>
      <trkpt lat="45.16222" lon="5.59267">
        <ele>1348.87</ele>
        <time>2015-01-02T09:26:35Z</time>
      </trkpt>
      <trkpt lat="45.16233" lon="5.59273">
        <ele>1349.83</ele>
        <time>2015-01-02T09:26:48Z</time>
      </trkpt>
      <trkpt lat="45.16251" lon="5.59277">
        <ele>1351.27</ele>
        <time>2015-01-02T09:27:00Z</time>
      </trkpt>
      <trkpt lat="45.16262" lon="5.59279">
        <ele>1353.19</ele>
        <time>2015-01-02T09:27:13Z</time>
      </trkpt>
      <trkpt lat="45.16271" lon="5.59286">
        <ele>1355.6</ele>
        <time>2015-01-02T09:27:26Z</time>
      </trkpt>
      <trkpt lat="45.16272" lon="5.59287">
        <ele>1355.6</ele>
        <time>2015-01-02T09:27:27Z</time>
      </trkpt>
      <trkpt lat="45.16281" lon="5.59291">
        <ele>1356.56</ele>
        <time>2015-01-02T09:27:39Z</time>
      </trkpt>
      <trkpt lat="45.16289" lon="5.59293">
        <ele>1358.48</ele>
        <time>2015-01-02T09:27:51Z</time>
      </trkpt>
      <trkpt lat="45.16296" lon="5.59298">
        <ele>1360.4</ele>
        <time>2015-01-02T09:28:07Z</time>
      </trkpt>
      <trkpt lat="45.16304" lon="5.59301">
        <ele>1362.33</ele>
        <time>2015-01-02T09:28:19Z</time>
      </trkpt>
      <trkpt lat="45.16319" lon="5.59307">
        <ele>1363.77</ele>
        <time>2015-01-02T09:28:32Z</time>
      </trkpt>
      <trkpt lat="45.16329" lon="5.5931">
        <ele>1365.21</ele>
        <time>2015-01-02T09:28:45Z</time>
      </trkpt>
      <trkpt lat="45.16338" lon="5.59314">
        <ele>1366.65</ele>
        <time>2015-01-02T09:28:59Z</time>
      </trkpt>
      <trkpt lat="45.1635" lon="5.59315">
        <ele>1369.54</ele>
        <time>2015-01-02T09:29:13Z</time>
      </trkpt>
      <trkpt lat="45.1636" lon="5.59316">
        <ele>1370.5</ele>
        <time>2015-01-02T09:29:25Z</time>
      </trkpt>
      <trkpt lat="45.16369" lon="5.5932">
        <ele>1371.94</ele>
        <time>2015-01-02T09:29:39Z</time>
      </trkpt>
      <trkpt lat="45.16379" lon="5.5932">
        <ele>1373.86</ele>
        <time>2015-01-02T09:29:52Z</time>
      </trkpt>
      <trkpt lat="45.16391" lon="5.59321">
        <ele>1375.3</ele>
        <time>2015-01-02T09:30:07Z</time>
      </trkpt>
      <trkpt lat="45.164" lon="5.5932">
        <ele>1377.23</ele>
        <time>2015-01-02T09:30:21Z</time>
      </trkpt>
      <trkpt lat="45.16407" lon="5.59311">
        <ele>1377.71</ele>
        <time>2015-01-02T09:30:34Z</time>
      </trkpt>
      <trkpt lat="45.1641" lon="5.59305">
        <ele>1378.19</ele>
        <time>2015-01-02T09:30:50Z</time>
      </trkpt>
      <trkpt lat="45.1641" lon="5.59305">
        <ele>1377.71</ele>
        <time>2015-01-02T09:31:21Z</time>
      </trkpt>
      <trkpt lat="45.1641" lon="5.59305">
        <ele>1378.19</ele>
        <time>2015-01-02T09:31:49Z</time>
      </trkpt>
      <trkpt lat="45.16415" lon="5.59296">
        <ele>1378.67</ele>
        <time>2015-01-02T09:32:04Z</time>
      </trkpt>
      <trkpt lat="45.16422" lon="5.59284">
        <ele>1380.11</ele>
        <time>2015-01-02T09:32:19Z</time>
      </trkpt>
      <trkpt lat="45.16426" lon="5.59271">
        <ele>1381.07</ele>
        <time>2015-01-02T09:32:32Z</time>
      </trkpt>
      <trkpt lat="45.16431" lon="5.59261">
        <ele>1382.51</ele>
        <time>2015-01-02T09:32:46Z</time>
      </trkpt>
      <trkpt lat="45.16447" lon="5.5925">
        <ele>1385.4</ele>
        <time>2015-01-02T09:33:01Z</time>
      </trkpt>
      <trkpt lat="45.16463" lon="5.59239">
        <ele>1385.88</ele>
        <time>2015-01-02T09:33:17Z</time>
      </trkpt>
      <trkpt lat="45.16466" lon="5.59224">
        <ele>1386.84</ele>
        <time>2015-01-02T09:33:32Z</time>
      </trkpt>
      <trkpt lat="45.16465" lon="5.59219">
        <ele>1387.8</ele>
        <time>2015-01-02T09:33:43Z</time>
      </trkpt>
      <trkpt lat="45.16466" lon="5.59207">
        <ele>1387.8</ele>
        <time>2015-01-02T09:33:54Z</time>
      </trkpt>
      <trkpt lat="45.16465" lon="5.59185">
        <ele>1389.24</ele>
        <time>2015-01-02T09:34:07Z</time>
      </trkpt>
      <trkpt lat="45.16471" lon="5.5916">
        <ele>1390.68</ele>
        <time>2015-01-02T09:34:24Z</time>
      </trkpt>
      <trkpt lat="45.1648" lon="5.59143">
        <ele>1391.17</ele>
        <time>2015-01-02T09:34:35Z</time>
      </trkpt>
      <trkpt lat="45.16489" lon="5.59124">
        <ele>1393.09</ele>
        <time>2015-01-02T09:34:50Z</time>
      </trkpt>
      <trkpt lat="45.16492" lon="5.59104">
        <ele>1395.49</ele>
        <time>2015-01-02T09:35:03Z</time>
      </trkpt>
      <trkpt lat="45.1649" lon="5.59084">
        <ele>1395.97</ele>
        <time>2015-01-02T09:35:16Z</time>
      </trkpt>
      <trkpt lat="45.16484" lon="5.59069">
        <ele>1397.41</ele>
        <time>2015-01-02T09:35:30Z</time>
      </trkpt>
      <trkpt lat="45.16475" lon="5.59055">
        <ele>1398.86</ele>
        <time>2015-01-02T09:35:44Z</time>
      </trkpt>
      <trkpt lat="45.1647" lon="5.59044">
        <ele>1401.26</ele>
        <time>2015-01-02T09:35:57Z</time>
      </trkpt>
      <trkpt lat="45.16462" lon="5.59032">
        <ele>1402.22</ele>
        <time>2015-01-02T09:36:10Z</time>
      </trkpt>
      <trkpt lat="45.16456" lon="5.59023">
        <ele>1403.66</ele>
        <time>2015-01-02T09:36:20Z</time>
      </trkpt>
      <trkpt lat="45.16449" lon="5.59009">
        <ele>1404.62</ele>
        <time>2015-01-02T09:36:32Z</time>
      </trkpt>
      <trkpt lat="45.1644" lon="5.58999">
        <ele>1405.1</ele>
        <time>2015-01-02T09:36:45Z</time>
      </trkpt>
      <trkpt lat="45.16435" lon="5.58992">
        <ele>1407.03</ele>
        <time>2015-01-02T09:36:59Z</time>
      </trkpt>
      <trkpt lat="45.16428" lon="5.58979">
        <ele>1407.99</ele>
        <time>2015-01-02T09:37:11Z</time>
      </trkpt>
      <trkpt lat="45.16417" lon="5.58965">
        <ele>1409.43</ele>
        <time>2015-01-02T09:37:24Z</time>
      </trkpt>
      <trkpt lat="45.16407" lon="5.58951">
        <ele>1410.87</ele>
        <time>2015-01-02T09:37:40Z</time>
      </trkpt>
      <trkpt lat="45.16406" lon="5.5895">
        <ele>1411.35</ele>
        <time>2015-01-02T09:37:41Z</time>
      </trkpt>
      <trkpt lat="45.16399" lon="5.58939">
        <ele>1412.31</ele>
        <time>2015-01-02T09:37:51Z</time>
      </trkpt>
      <trkpt lat="45.16393" lon="5.58925">
        <ele>1412.79</ele>
        <time>2015-01-02T09:38:03Z</time>
      </trkpt>
      <trkpt lat="45.16385" lon="5.58913">
        <ele>1414.72</ele>
        <time>2015-01-02T09:38:17Z</time>
      </trkpt>
      <trkpt lat="45.16378" lon="5.58903">
        <ele>1415.68</ele>
        <time>2015-01-02T09:38:29Z</time>
      </trkpt>
      <trkpt lat="45.16373" lon="5.58892">
        <ele>1417.12</ele>
        <time>2015-01-02T09:38:41Z</time>
      </trkpt>
      <trkpt lat="45.16366" lon="5.58879">
        <ele>1419.04</ele>
        <time>2015-01-02T09:38:55Z</time>
      </trkpt>
      <trkpt lat="45.1636" lon="5.58866">
        <ele>1420.49</ele>
        <time>2015-01-02T09:39:10Z</time>
      </trkpt>
      <trkpt lat="45.16351" lon="5.58853">
        <ele>1422.41</ele>
        <time>2015-01-02T09:39:24Z</time>
      </trkpt>
      <trkpt lat="45.16348" lon="5.58843">
        <ele>1422.89</ele>
        <time>2015-01-02T09:39:33Z</time>
      </trkpt>
      <trkpt lat="45.16343" lon="5.58831">
        <ele>1424.81</ele>
        <time>2015-01-02T09:39:46Z</time>
      </trkpt>
      <trkpt lat="45.16342" lon="5.58814">
        <ele>1426.73</ele>
        <time>2015-01-02T09:40:01Z</time>
      </trkpt>
      <trkpt lat="45.16338" lon="5.588">
        <ele>1427.21</ele>
        <time>2015-01-02T09:40:14Z</time>
      </trkpt>
      <trkpt lat="45.16327" lon="5.58786">
        <ele>1429.14</ele>
        <time>2015-01-02T09:40:28Z</time>
      </trkpt>
      <trkpt lat="45.16324" lon="5.58782">
        <ele>1430.58</ele>
        <time>2015-01-02T09:40:32Z</time>
      </trkpt>
      <trkpt lat="45.16314" lon="5.58773">
        <ele>1431.54</ele>
        <time>2015-01-02T09:40:44Z</time>
      </trkpt>
      <trkpt lat="45.16313" lon="5.58772">
        <ele>1431.06</ele>
        <time>2015-01-02T09:40:45Z</time>
      </trkpt>
      <trkpt lat="45.16311" lon="5.5877">
        <ele>1431.54</ele>
        <time>2015-01-02T09:40:48Z</time>
      </trkpt>
      <trkpt lat="45.16309" lon="5.58769">
        <ele>1431.54</ele>
        <time>2015-01-02T09:40:50Z</time>
      </trkpt>
      <trkpt lat="45.16299" lon="5.58755">
        <ele>1432.98</ele>
        <time>2015-01-02T09:41:06Z</time>
      </trkpt>
      <trkpt lat="45.16297" lon="5.58752">
        <ele>1433.46</ele>
        <time>2015-01-02T09:41:23Z</time>
      </trkpt>
      <trkpt lat="45.16297" lon="5.58752">
        <ele>1432.98</ele>
        <time>2015-01-02T09:41:43Z</time>
      </trkpt>
      <trkpt lat="45.16297" lon="5.5875">
        <ele>1434.42</ele>
        <time>2015-01-02T09:41:58Z</time>
      </trkpt>
      <trkpt lat="45.16301" lon="5.58737">
        <ele>1436.83</ele>
        <time>2015-01-02T09:42:11Z</time>
      </trkpt>
      <trkpt lat="45.16305" lon="5.58731">
        <ele>1437.79</ele>
        <time>2015-01-02T09:42:25Z</time>
      </trkpt>
      <trkpt lat="45.16312" lon="5.58728">
        <ele>1440.67</ele>
        <time>2015-01-02T09:42:40Z</time>
      </trkpt>
      <trkpt lat="45.16313" lon="5.58728">
        <ele>1442.6</ele>
        <time>2015-01-02T09:42:55Z</time>
      </trkpt>
      <trkpt lat="45.16334" lon="5.58722">
        <ele>1444.52</ele>
        <time>2015-01-02T09:43:10Z</time>
      </trkpt>
      <trkpt lat="45.16346" lon="5.58723">
        <ele>1446.92</ele>
        <time>2015-01-02T09:43:25Z</time>
      </trkpt>
      <trkpt lat="45.1635" lon="5.5872">
        <ele>1449.32</ele>
        <time>2015-01-02T09:43:39Z</time>
      </trkpt>
      <trkpt lat="45.16353" lon="5.58722">
        <ele>1452.21</ele>
        <time>2015-01-02T09:43:54Z</time>
      </trkpt>
      <trkpt lat="45.16355" lon="5.58719">
        <ele>1455.57</ele>
        <time>2015-01-02T09:44:11Z</time>
      </trkpt>
      <trkpt lat="45.16358" lon="5.5872">
        <ele>1457.98</ele>
        <time>2015-01-02T09:44:27Z</time>
      </trkpt>
      <trkpt lat="45.16382" lon="5.58714">
        <ele>1460.38</ele>
        <time>2015-01-02T09:44:45Z</time>
      </trkpt>
      <trkpt lat="45.1639" lon="5.5871">
        <ele>1463.26</ele>
        <time>2015-01-02T09:44:58Z</time>
      </trkpt>
      <trkpt lat="45.16397" lon="5.58704">
        <ele>1465.19</ele>
        <time>2015-01-02T09:45:13Z</time>
      </trkpt>
      <trkpt lat="45.16399" lon="5.58703">
        <ele>1467.11</ele>
        <time>2015-01-02T09:45:34Z</time>
      </trkpt>
      <trkpt lat="45.16399" lon="5.58703">
        <ele>1468.07</ele>
        <time>2015-01-02T09:45:54Z</time>
      </trkpt>
      <trkpt lat="45.16407" lon="5.58703">
        <ele>1470.95</ele>
        <time>2015-01-02T09:46:10Z</time>
      </trkpt>
      <trkpt lat="45.16417" lon="5.58704">
        <ele>1471.44</ele>
        <time>2015-01-02T09:46:25Z</time>
      </trkpt>
      <trkpt lat="45.16417" lon="5.58704">
        <ele>1470.95</ele>
        <time>2015-01-02T09:46:51Z</time>
      </trkpt>
      <trkpt lat="45.16419" lon="5.58703">
        <ele>1472.88</ele>
        <time>2015-01-02T09:47:09Z</time>
      </trkpt>
      <trkpt lat="45.16419" lon="5.58703">
        <ele>1476.24</ele>
        <time>2015-01-02T09:47:26Z</time>
      </trkpt>
      <trkpt lat="45.1642" lon="5.58702">
        <ele>1478.65</ele>
        <time>2015-01-02T09:47:40Z</time>
      </trkpt>
      <trkpt lat="45.16454" lon="5.58683">
        <ele>1480.09</ele>
        <time>2015-01-02T09:47:54Z</time>
      </trkpt>
      <trkpt lat="45.16472" lon="5.58677">
        <ele>1482.97</ele>
        <time>2015-01-02T09:48:07Z</time>
      </trkpt>
      <trkpt lat="45.16487" lon="5.58673">
        <ele>1484.41</ele>
        <time>2015-01-02T09:48:22Z</time>
      </trkpt>
      <trkpt lat="45.16496" lon="5.58671">
        <ele>1486.82</ele>
        <time>2015-01-02T09:48:36Z</time>
      </trkpt>
      <trkpt lat="45.16499" lon="5.5867">
        <ele>1488.26</ele>
        <time>2015-01-02T09:48:41Z</time>
      </trkpt>
      <trkpt lat="45.1651" lon="5.58672">
        <ele>1490.18</ele>
        <time>2015-01-02T09:48:55Z</time>
      </trkpt>
      <trkpt lat="45.16512" lon="5.58672">
        <ele>1490.66</ele>
        <time>2015-01-02T09:49:10Z</time>
      </trkpt>
      <trkpt lat="45.16512" lon="5.58672">
        <ele>1490.66</ele>
        <time>2015-01-02T09:49:31Z</time>
      </trkpt>
      <trkpt lat="45.16518" lon="5.58671">
        <ele>1492.1</ele>
        <time>2015-01-02T09:49:46Z</time>
      </trkpt>
      <trkpt lat="45.16527" lon="5.5867">
        <ele>1493.55</ele>
        <time>2015-01-02T09:50:01Z</time>
      </trkpt>
      <trkpt lat="45.16537" lon="5.58669">
        <ele>1494.99</ele>
        <time>2015-01-02T09:50:16Z</time>
      </trkpt>
      <trkpt lat="45.16554" lon="5.58666">
        <ele>1496.43</ele>
        <time>2015-01-02T09:50:32Z</time>
      </trkpt>
      <trkpt lat="45.1657" lon="5.58661">
        <ele>1497.87</ele>
        <time>2015-01-02T09:50:49Z</time>
      </trkpt>
      <trkpt lat="45.16581" lon="5.58657">
        <ele>1499.79</ele>
        <time>2015-01-02T09:51:01Z</time>
      </trkpt>
      <trkpt lat="45.16592" lon="5.58655">
        <ele>1500.76</ele>
        <time>2015-01-02T09:51:14Z</time>
      </trkpt>
      <trkpt lat="45.16604" lon="5.58652">
        <ele>1503.16</ele>
        <time>2015-01-02T09:51:30Z</time>
      </trkpt>
      <trkpt lat="45.16614" lon="5.58652">
        <ele>1504.6</ele>
        <time>2015-01-02T09:51:45Z</time>
      </trkpt>
      <trkpt lat="45.16627" lon="5.5865">
        <ele>1505.56</ele>
        <time>2015-01-02T09:51:58Z</time>
      </trkpt>
      <trkpt lat="45.16635" lon="5.58649">
        <ele>1507</ele>
        <time>2015-01-02T09:52:11Z</time>
      </trkpt>
      <trkpt lat="45.16649" lon="5.58648">
        <ele>1509.89</ele>
        <time>2015-01-02T09:52:25Z</time>
      </trkpt>
      <trkpt lat="45.16658" lon="5.58647">
        <ele>1510.37</ele>
        <time>2015-01-02T09:52:37Z</time>
      </trkpt>
      <trkpt lat="45.16666" lon="5.58646">
        <ele>1512.29</ele>
        <time>2015-01-02T09:52:49Z</time>
      </trkpt>
      <trkpt lat="45.16674" lon="5.58647">
        <ele>1513.25</ele>
        <time>2015-01-02T09:53:01Z</time>
      </trkpt>
      <trkpt lat="45.16686" lon="5.58649">
        <ele>1515.18</ele>
        <time>2015-01-02T09:53:16Z</time>
      </trkpt>
      <trkpt lat="45.16694" lon="5.5865">
        <ele>1516.62</ele>
        <time>2015-01-02T09:53:32Z</time>
      </trkpt>
      <trkpt lat="45.16698" lon="5.58649">
        <ele>1518.06</ele>
        <time>2015-01-02T09:53:48Z</time>
      </trkpt>
      <trkpt lat="45.16702" lon="5.58648">
        <ele>1520.94</ele>
        <time>2015-01-02T09:54:02Z</time>
      </trkpt>
      <trkpt lat="45.16709" lon="5.58649">
        <ele>1521.9</ele>
        <time>2015-01-02T09:54:18Z</time>
      </trkpt>
      <trkpt lat="45.16737" lon="5.58644">
        <ele>1523.83</ele>
        <time>2015-01-02T09:54:33Z</time>
      </trkpt>
      <trkpt lat="45.16746" lon="5.58651">
        <ele>1524.31</ele>
        <time>2015-01-02T09:54:47Z</time>
      </trkpt>
      <trkpt lat="45.16748" lon="5.58651">
        <ele>1524.79</ele>
        <time>2015-01-02T09:54:48Z</time>
      </trkpt>
      <trkpt lat="45.16764" lon="5.5865">
        <ele>1524.79</ele>
        <time>2015-01-02T09:55:03Z</time>
      </trkpt>
      <trkpt lat="45.16779" lon="5.58651">
        <ele>1527.19</ele>
        <time>2015-01-02T09:55:20Z</time>
      </trkpt>
      <trkpt lat="45.1679" lon="5.58649">
        <ele>1530.08</ele>
        <time>2015-01-02T09:55:34Z</time>
      </trkpt>
      <trkpt lat="45.16804" lon="5.58652">
        <ele>1531.04</ele>
        <time>2015-01-02T09:55:53Z</time>
      </trkpt>
      <trkpt lat="45.16804" lon="5.58652">
        <ele>1531.04</ele>
        <time>2015-01-02T09:56:13Z</time>
      </trkpt>
      <trkpt lat="45.16804" lon="5.58651">
        <ele>1531.52</ele>
        <time>2015-01-02T09:56:37Z</time>
      </trkpt>
      <trkpt lat="45.16814" lon="5.5865">
        <ele>1532.96</ele>
        <time>2015-01-02T09:56:55Z</time>
      </trkpt>
      <trkpt lat="45.16822" lon="5.58647">
        <ele>1534.4</ele>
        <time>2015-01-02T09:57:08Z</time>
      </trkpt>
      <trkpt lat="45.16832" lon="5.58649">
        <ele>1535.36</ele>
        <time>2015-01-02T09:57:21Z</time>
      </trkpt>
      <trkpt lat="45.16844" lon="5.5865">
        <ele>1536.32</ele>
        <time>2015-01-02T09:57:36Z</time>
      </trkpt>
      <trkpt lat="45.16853" lon="5.58649">
        <ele>1537.29</ele>
        <time>2015-01-02T09:57:48Z</time>
      </trkpt>
      <trkpt lat="45.16863" lon="5.58649">
        <ele>1538.73</ele>
        <time>2015-01-02T09:58:01Z</time>
      </trkpt>
      <trkpt lat="45.16872" lon="5.58648">
        <ele>1539.69</ele>
        <time>2015-01-02T09:58:14Z</time>
      </trkpt>
      <trkpt lat="45.16882" lon="5.58649">
        <ele>1540.17</ele>
        <time>2015-01-02T09:58:28Z</time>
      </trkpt>
      <trkpt lat="45.16895" lon="5.58652">
        <ele>1541.61</ele>
        <time>2015-01-02T09:58:44Z</time>
      </trkpt>
      <trkpt lat="45.16901" lon="5.58654">
        <ele>1542.09</ele>
        <time>2015-01-02T09:58:59Z</time>
      </trkpt>
      <trkpt lat="45.16907" lon="5.58656">
        <ele>1544.01</ele>
        <time>2015-01-02T09:59:12Z</time>
      </trkpt>
      <trkpt lat="45.16917" lon="5.5866">
        <ele>1547.38</ele>
        <time>2015-01-02T09:59:26Z</time>
      </trkpt>
      <trkpt lat="45.16927" lon="5.58665">
        <ele>1548.34</ele>
        <time>2015-01-02T09:59:41Z</time>
      </trkpt>
      <trkpt lat="45.1694" lon="5.58673">
        <ele>1549.3</ele>
        <time>2015-01-02T09:59:57Z</time>
      </trkpt>
      <trkpt lat="45.16951" lon="5.58671">
        <ele>1550.74</ele>
        <time>2015-01-02T10:00:11Z</time>
      </trkpt>
      <trkpt lat="45.16959" lon="5.58669">
        <ele>1551.22</ele>
        <time>2015-01-02T10:00:22Z</time>
      </trkpt>
      <trkpt lat="45.16963" lon="5.5867">
        <ele>1551.22</ele>
        <time>2015-01-02T10:00:36Z</time>
      </trkpt>
      <trkpt lat="45.16973" lon="5.58671">
        <ele>1552.19</ele>
        <time>2015-01-02T10:00:50Z</time>
      </trkpt>
      <trkpt lat="45.16982" lon="5.58675">
        <ele>1553.15</ele>
        <time>2015-01-02T10:01:03Z</time>
      </trkpt>
      <trkpt lat="45.16991" lon="5.58682">
        <ele>1554.11</ele>
        <time>2015-01-02T10:01:15Z</time>
      </trkpt>
      <trkpt lat="45.17004" lon="5.58689">
        <ele>1556.51</ele>
        <time>2015-01-02T10:01:29Z</time>
      </trkpt>
      <trkpt lat="45.17013" lon="5.58695">
        <ele>1556.99</ele>
        <time>2015-01-02T10:01:43Z</time>
      </trkpt>
      <trkpt lat="45.17021" lon="5.58699">
        <ele>1557.95</ele>
        <time>2015-01-02T10:01:57Z</time>
      </trkpt>
      <trkpt lat="45.17026" lon="5.58697">
        <ele>1559.4</ele>
        <time>2015-01-02T10:02:09Z</time>
      </trkpt>
      <trkpt lat="45.1704" lon="5.58692">
        <ele>1559.88</ele>
        <time>2015-01-02T10:02:19Z</time>
      </trkpt>
      <trkpt lat="45.17053" lon="5.58686">
        <ele>1561.8</ele>
        <time>2015-01-02T10:02:34Z</time>
      </trkpt>
      <trkpt lat="45.17068" lon="5.5868">
        <ele>1563.24</ele>
        <time>2015-01-02T10:02:49Z</time>
      </trkpt>
      <trkpt lat="45.1708" lon="5.58674">
        <ele>1563.72</ele>
        <time>2015-01-02T10:03:02Z</time>
      </trkpt>
      <trkpt lat="45.17091" lon="5.58669">
        <ele>1563.72</ele>
        <time>2015-01-02T10:03:14Z</time>
      </trkpt>
      <trkpt lat="45.17104" lon="5.58667">
        <ele>1564.2</ele>
        <time>2015-01-02T10:03:27Z</time>
      </trkpt>
      <trkpt lat="45.17118" lon="5.58668">
        <ele>1564.68</ele>
        <time>2015-01-02T10:03:41Z</time>
      </trkpt>
      <trkpt lat="45.17128" lon="5.58671">
        <ele>1566.12</ele>
        <time>2015-01-02T10:03:54Z</time>
      </trkpt>
      <trkpt lat="45.17128" lon="5.58671">
        <ele>1566.61</ele>
        <time>2015-01-02T10:04:14Z</time>
      </trkpt>
      <trkpt lat="45.17128" lon="5.58671">
        <ele>1566.61</ele>
        <time>2015-01-02T10:04:34Z</time>
      </trkpt>
      <trkpt lat="45.17138" lon="5.58668">
        <ele>1568.53</ele>
        <time>2015-01-02T10:04:49Z</time>
      </trkpt>
      <trkpt lat="45.17143" lon="5.58666">
        <ele>1568.53</ele>
        <time>2015-01-02T10:05:03Z</time>
      </trkpt>
      <trkpt lat="45.17149" lon="5.58666">
        <ele>1569.49</ele>
        <time>2015-01-02T10:05:21Z</time>
      </trkpt>
      <trkpt lat="45.17155" lon="5.58665">
        <ele>1569.97</ele>
        <time>2015-01-02T10:05:26Z</time>
      </trkpt>
      <trkpt lat="45.17167" lon="5.58665">
        <ele>1570.45</ele>
        <time>2015-01-02T10:05:42Z</time>
      </trkpt>
      <trkpt lat="45.17188" lon="5.58669">
        <ele>1572.85</ele>
        <time>2015-01-02T10:05:59Z</time>
      </trkpt>
      <trkpt lat="45.17196" lon="5.58675">
        <ele>1574.3</ele>
        <time>2015-01-02T10:06:11Z</time>
      </trkpt>
      <trkpt lat="45.17206" lon="5.58682">
        <ele>1574.78</ele>
        <time>2015-01-02T10:06:24Z</time>
      </trkpt>
      <trkpt lat="45.17217" lon="5.58697">
        <ele>1577.18</ele>
        <time>2015-01-02T10:06:39Z</time>
      </trkpt>
      <trkpt lat="45.17224" lon="5.58706">
        <ele>1578.14</ele>
        <time>2015-01-02T10:06:53Z</time>
      </trkpt>
      <trkpt lat="45.17226" lon="5.58709">
        <ele>1578.62</ele>
        <time>2015-01-02T10:07:07Z</time>
      </trkpt>
      <trkpt lat="45.17226" lon="5.58709">
        <ele>1578.62</ele>
        <time>2015-01-02T10:07:31Z</time>
      </trkpt>
      <trkpt lat="45.17226" lon="5.5871">
        <ele>1578.62</ele>
        <time>2015-01-02T10:07:58Z</time>
      </trkpt>
      <trkpt lat="45.17226" lon="5.5871">
        <ele>1578.62</ele>
        <time>2015-01-02T10:08:23Z</time>
      </trkpt>
      <trkpt lat="45.17226" lon="5.5871">
        <ele>1578.62</ele>
        <time>2015-01-02T10:08:46Z</time>
      </trkpt>
      <trkpt lat="45.17226" lon="5.5871">
        <ele>1579.1</ele>
        <time>2015-01-02T10:09:06Z</time>
      </trkpt>
      <trkpt lat="45.17232" lon="5.58718">
        <ele>1580.06</ele>
        <time>2015-01-02T10:09:13Z</time>
      </trkpt>
      <trkpt lat="45.1725" lon="5.58728">
        <ele>1578.14</ele>
        <time>2015-01-02T10:09:28Z</time>
      </trkpt>
      <trkpt lat="45.17272" lon="5.58738">
        <ele>1578.62</ele>
        <time>2015-01-02T10:09:46Z</time>
      </trkpt>
      <trkpt lat="45.17289" lon="5.5875">
        <ele>1578.62</ele>
        <time>2015-01-02T10:10:00Z</time>
      </trkpt>
      <trkpt lat="45.173" lon="5.58756">
        <ele>1579.58</ele>
        <time>2015-01-02T10:10:13Z</time>
      </trkpt>
      <trkpt lat="45.17307" lon="5.58758">
        <ele>1580.06</ele>
        <time>2015-01-02T10:10:18Z</time>
      </trkpt>
      <trkpt lat="45.17324" lon="5.58761">
        <ele>1579.1</ele>
        <time>2015-01-02T10:10:32Z</time>
      </trkpt>
      <trkpt lat="45.17332" lon="5.58764">
        <ele>1580.06</ele>
        <time>2015-01-02T10:10:39Z</time>
      </trkpt>
      <trkpt lat="45.17349" lon="5.58772">
        <ele>1578.62</ele>
        <time>2015-01-02T10:10:54Z</time>
      </trkpt>
      <trkpt lat="45.17363" lon="5.58783">
        <ele>1579.1</ele>
        <time>2015-01-02T10:11:06Z</time>
      </trkpt>
      <trkpt lat="45.17368" lon="5.58789">
        <ele>1578.14</ele>
        <time>2015-01-02T10:11:12Z</time>
      </trkpt>
      <trkpt lat="45.17373" lon="5.58795">
        <ele>1579.58</ele>
        <time>2015-01-02T10:11:18Z</time>
      </trkpt>
      <trkpt lat="45.17389" lon="5.58804">
        <ele>1579.1</ele>
        <time>2015-01-02T10:11:34Z</time>
      </trkpt>
      <trkpt lat="45.17392" lon="5.58804">
        <ele>1579.1</ele>
        <time>2015-01-02T10:11:38Z</time>
      </trkpt>
      <trkpt lat="45.17407" lon="5.58807">
        <ele>1580.06</ele>
        <time>2015-01-02T10:11:50Z</time>
      </trkpt>
      <trkpt lat="45.17419" lon="5.58813">
        <ele>1580.54</ele>
        <time>2015-01-02T10:12:01Z</time>
      </trkpt>
      <trkpt lat="45.17425" lon="5.58814">
        <ele>1580.06</ele>
        <time>2015-01-02T10:12:06Z</time>
      </trkpt>
      <trkpt lat="45.17428" lon="5.58816">
        <ele>1580.06</ele>
        <time>2015-01-02T10:12:09Z</time>
      </trkpt>
      <trkpt lat="45.17447" lon="5.58826">
        <ele>1580.54</ele>
        <time>2015-01-02T10:12:26Z</time>
      </trkpt>
      <trkpt lat="45.17461" lon="5.58838">
        <ele>1581.03</ele>
        <time>2015-01-02T10:12:38Z</time>
      </trkpt>
      <trkpt lat="45.17462" lon="5.58839">
        <ele>1581.03</ele>
        <time>2015-01-02T10:12:40Z</time>
      </trkpt>
      <trkpt lat="45.1747" lon="5.58845">
        <ele>1581.51</ele>
        <time>2015-01-02T10:12:50Z</time>
      </trkpt>
      <trkpt lat="45.17484" lon="5.58851">
        <ele>1582.47</ele>
        <time>2015-01-02T10:13:05Z</time>
      </trkpt>
      <trkpt lat="45.17489" lon="5.58854">
        <ele>1582.47</ele>
        <time>2015-01-02T10:13:09Z</time>
      </trkpt>
      <trkpt lat="45.17512" lon="5.58861">
        <ele>1580.06</ele>
        <time>2015-01-02T10:13:24Z</time>
      </trkpt>
      <trkpt lat="45.17522" lon="5.58864">
        <ele>1581.03</ele>
        <time>2015-01-02T10:13:34Z</time>
      </trkpt>
      <trkpt lat="45.17538" lon="5.58873">
        <ele>1581.51</ele>
        <time>2015-01-02T10:13:49Z</time>
      </trkpt>
      <trkpt lat="45.17556" lon="5.58886">
        <ele>1580.06</ele>
        <time>2015-01-02T10:14:03Z</time>
      </trkpt>
      <trkpt lat="45.17568" lon="5.58895">
        <ele>1580.54</ele>
        <time>2015-01-02T10:14:15Z</time>
      </trkpt>
      <trkpt lat="45.17575" lon="5.58901">
        <ele>1581.51</ele>
        <time>2015-01-02T10:14:28Z</time>
      </trkpt>
      <trkpt lat="45.17578" lon="5.58903">
        <ele>1581.99</ele>
        <time>2015-01-02T10:14:44Z</time>
      </trkpt>
      <trkpt lat="45.17586" lon="5.58911">
        <ele>1583.43</ele>
        <time>2015-01-02T10:14:57Z</time>
      </trkpt>
      <trkpt lat="45.1759" lon="5.58913">
        <ele>1583.43</ele>
        <time>2015-01-02T10:15:10Z</time>
      </trkpt>
      <trkpt lat="45.1759" lon="5.58913">
        <ele>1583.43</ele>
        <time>2015-01-02T10:15:12Z</time>
      </trkpt>
      <trkpt lat="45.17593" lon="5.58915">
        <ele>1583.43</ele>
        <time>2015-01-02T10:15:14Z</time>
      </trkpt>
      <trkpt lat="45.17617" lon="5.58924">
        <ele>1581.51</ele>
        <time>2015-01-02T10:15:26Z</time>
      </trkpt>
      <trkpt lat="45.17637" lon="5.58932">
        <ele>1581.03</ele>
        <time>2015-01-02T10:15:39Z</time>
      </trkpt>
      <trkpt lat="45.17654" lon="5.58942">
        <ele>1579.1</ele>
        <time>2015-01-02T10:15:47Z</time>
      </trkpt>
      <trkpt lat="45.17686" lon="5.5896">
        <ele>1575.74</ele>
        <time>2015-01-02T10:15:57Z</time>
      </trkpt>
      <trkpt lat="45.17709" lon="5.58975">
        <ele>1572.37</ele>
        <time>2015-01-02T10:16:07Z</time>
      </trkpt>
      <trkpt lat="45.17727" lon="5.58983">
        <ele>1572.37</ele>
        <time>2015-01-02T10:16:21Z</time>
      </trkpt>
      <trkpt lat="45.17736" lon="5.58987">
        <ele>1572.37</ele>
        <time>2015-01-02T10:16:31Z</time>
      </trkpt>
      <trkpt lat="45.17742" lon="5.58995">
        <ele>1571.89</ele>
        <time>2015-01-02T10:16:47Z</time>
      </trkpt>
      <trkpt lat="45.17742" lon="5.58995">
        <ele>1571.89</ele>
        <time>2015-01-02T10:17:15Z</time>
      </trkpt>
      <trkpt lat="45.17743" lon="5.58995">
        <ele>1572.37</ele>
        <time>2015-01-02T10:17:48Z</time>
      </trkpt>
      <trkpt lat="45.17757" lon="5.58996">
        <ele>1572.37</ele>
        <time>2015-01-02T10:18:02Z</time>
      </trkpt>
      <trkpt lat="45.17762" lon="5.58997">
        <ele>1572.37</ele>
        <time>2015-01-02T10:18:15Z</time>
      </trkpt>
      <trkpt lat="45.17767" lon="5.58997">
        <ele>1571.89</ele>
        <time>2015-01-02T10:18:19Z</time>
      </trkpt>
      <trkpt lat="45.178" lon="5.59001">
        <ele>1569.97</ele>
        <time>2015-01-02T10:18:33Z</time>
      </trkpt>
      <trkpt lat="45.17826" lon="5.59002">
        <ele>1568.53</ele>
        <time>2015-01-02T10:18:48Z</time>
      </trkpt>
      <trkpt lat="45.17852" lon="5.59003">
        <ele>1567.57</ele>
        <time>2015-01-02T10:19:03Z</time>
      </trkpt>
      <trkpt lat="45.1787" lon="5.59003">
        <ele>1564.2</ele>
        <time>2015-01-02T10:19:10Z</time>
      </trkpt>
      <trkpt lat="45.17884" lon="5.59003">
        <ele>1562.28</ele>
        <time>2015-01-02T10:19:14Z</time>
      </trkpt>
      <trkpt lat="45.17893" lon="5.59004">
        <ele>1560.84</ele>
        <time>2015-01-02T10:19:16Z</time>
      </trkpt>
      <trkpt lat="45.17897" lon="5.59005">
        <ele>1560.84</ele>
        <time>2015-01-02T10:19:17Z</time>
      </trkpt>
      <trkpt lat="45.17921" lon="5.59008">
        <ele>1558.43</ele>
        <time>2015-01-02T10:19:22Z</time>
      </trkpt>
      <trkpt lat="45.17946" lon="5.59011">
        <ele>1555.55</ele>
        <time>2015-01-02T10:19:29Z</time>
      </trkpt>
      <trkpt lat="45.17978" lon="5.59021">
        <ele>1551.71</ele>
        <time>2015-01-02T10:19:37Z</time>
      </trkpt>
      <trkpt lat="45.17997" lon="5.5903">
        <ele>1550.74</ele>
        <time>2015-01-02T10:19:48Z</time>
      </trkpt>
      <trkpt lat="45.18001" lon="5.59034">
        <ele>1551.22</ele>
        <time>2015-01-02T10:20:03Z</time>
      </trkpt>
      <trkpt lat="45.18007" lon="5.59042">
        <ele>1550.74</ele>
        <time>2015-01-02T10:20:15Z</time>
      </trkpt>
      <trkpt lat="45.18016" lon="5.59052">
        <ele>1552.19</ele>
        <time>2015-01-02T10:20:30Z</time>
      </trkpt>
      <trkpt lat="45.18023" lon="5.59056">
        <ele>1553.15</ele>
        <time>2015-01-02T10:20:42Z</time>
      </trkpt>
      <trkpt lat="45.18026" lon="5.59058">
        <ele>1553.15</ele>
        <time>2015-01-02T10:20:45Z</time>
      </trkpt>
      <trkpt lat="45.18027" lon="5.59059">
        <ele>1553.63</ele>
        <time>2015-01-02T10:20:46Z</time>
      </trkpt>
      <trkpt lat="45.18032" lon="5.59062">
        <ele>1554.59</ele>
        <time>2015-01-02T10:20:52Z</time>
      </trkpt>
      <trkpt lat="45.18033" lon="5.59063">
        <ele>1554.11</ele>
        <time>2015-01-02T10:20:53Z</time>
      </trkpt>
      <trkpt lat="45.18037" lon="5.59068">
        <ele>1554.59</ele>
        <time>2015-01-02T10:20:59Z</time>
      </trkpt>
      <trkpt lat="45.18045" lon="5.59073">
        <ele>1556.03</ele>
        <time>2015-01-02T10:21:08Z</time>
      </trkpt>
      <trkpt lat="45.18046" lon="5.59074">
        <ele>1556.51</ele>
        <time>2015-01-02T10:21:09Z</time>
      </trkpt>
      <trkpt lat="45.18051" lon="5.59077">
        <ele>1556.03</ele>
        <time>2015-01-02T10:21:25Z</time>
      </trkpt>
      <trkpt lat="45.18051" lon="5.59077">
        <ele>1556.03</ele>
        <time>2015-01-02T10:21:49Z</time>
      </trkpt>
      <trkpt lat="45.1805" lon="5.59077">
        <ele>1556.03</ele>
        <time>2015-01-02T10:22:06Z</time>
      </trkpt>
      <trkpt lat="45.1805" lon="5.59077">
        <ele>1556.51</ele>
        <time>2015-01-02T10:22:32Z</time>
      </trkpt>
      <trkpt lat="45.1805" lon="5.59077">
        <ele>1556.51</ele>
        <time>2015-01-02T10:23:06Z</time>
      </trkpt>
      <trkpt lat="45.1805" lon="5.59077">
        <ele>1556.03</ele>
        <time>2015-01-02T10:23:39Z</time>
      </trkpt>
      <trkpt lat="45.18053" lon="5.59078">
        <ele>1556.03</ele>
        <time>2015-01-02T10:24:02Z</time>
      </trkpt>
      <trkpt lat="45.18066" lon="5.5909">
        <ele>1556.03</ele>
        <time>2015-01-02T10:24:17Z</time>
      </trkpt>
      <trkpt lat="45.18079" lon="5.591">
        <ele>1556.51</ele>
        <time>2015-01-02T10:24:31Z</time>
      </trkpt>
      <trkpt lat="45.18089" lon="5.59111">
        <ele>1556.51</ele>
        <time>2015-01-02T10:24:42Z</time>
      </trkpt>
      <trkpt lat="45.1809" lon="5.59112">
        <ele>1557.47</ele>
        <time>2015-01-02T10:24:43Z</time>
      </trkpt>
      <trkpt lat="45.18099" lon="5.59119">
        <ele>1556.03</ele>
        <time>2015-01-02T10:24:53Z</time>
      </trkpt>
      <trkpt lat="45.181" lon="5.59121">
        <ele>1556.99</ele>
        <time>2015-01-02T10:24:54Z</time>
      </trkpt>
      <trkpt lat="45.18112" lon="5.59129">
        <ele>1557.95</ele>
        <time>2015-01-02T10:25:08Z</time>
      </trkpt>
      <trkpt lat="45.18119" lon="5.59133">
        <ele>1558.43</ele>
        <time>2015-01-02T10:25:15Z</time>
      </trkpt>
      <trkpt lat="45.1812" lon="5.59134">
        <ele>1559.4</ele>
        <time>2015-01-02T10:25:16Z</time>
      </trkpt>
      <trkpt lat="45.18135" lon="5.59138">
        <ele>1558.92</ele>
        <time>2015-01-02T10:25:29Z</time>
      </trkpt>
      <trkpt lat="45.18155" lon="5.5915">
        <ele>1557.47</ele>
        <time>2015-01-02T10:25:43Z</time>
      </trkpt>
      <trkpt lat="45.18177" lon="5.59167">
        <ele>1557.47</ele>
        <time>2015-01-02T10:26:00Z</time>
      </trkpt>
      <trkpt lat="45.18189" lon="5.5917">
        <ele>1557.95</ele>
        <time>2015-01-02T10:26:11Z</time>
      </trkpt>
      <trkpt lat="45.18208" lon="5.59176">
        <ele>1556.99</ele>
        <time>2015-01-02T10:26:26Z</time>
      </trkpt>
      <trkpt lat="45.18222" lon="5.59185">
        <ele>1557.95</ele>
        <time>2015-01-02T10:26:39Z</time>
      </trkpt>
      <trkpt lat="45.18225" lon="5.59187">
        <ele>1558.43</ele>
        <time>2015-01-02T10:26:42Z</time>
      </trkpt>
      <trkpt lat="45.18226" lon="5.59188">
        <ele>1557.47</ele>
        <time>2015-01-02T10:26:43Z</time>
      </trkpt>
      <trkpt lat="45.1824" lon="5.59196">
        <ele>1558.92</ele>
        <time>2015-01-02T10:26:56Z</time>
      </trkpt>
      <trkpt lat="45.18254" lon="5.59209">
        <ele>1559.4</ele>
        <time>2015-01-02T10:27:10Z</time>
      </trkpt>
      <trkpt lat="45.1827" lon="5.59231">
        <ele>1558.92</ele>
        <time>2015-01-02T10:27:27Z</time>
      </trkpt>
      <trkpt lat="45.18286" lon="5.59245">
        <ele>1557.95</ele>
        <time>2015-01-02T10:27:39Z</time>
      </trkpt>
      <trkpt lat="45.18295" lon="5.59262">
        <ele>1557.95</ele>
        <time>2015-01-02T10:27:51Z</time>
      </trkpt>
      <trkpt lat="45.18303" lon="5.59277">
        <ele>1558.92</ele>
        <time>2015-01-02T10:28:05Z</time>
      </trkpt>
      <trkpt lat="45.18318" lon="5.59284">
        <ele>1558.92</ele>
        <time>2015-01-02T10:28:16Z</time>
      </trkpt>
      <trkpt lat="45.18335" lon="5.59285">
        <ele>1556.99</ele>
        <time>2015-01-02T10:28:29Z</time>
      </trkpt>
      <trkpt lat="45.18337" lon="5.59286">
        <ele>1556.99</ele>
        <time>2015-01-02T10:28:31Z</time>
      </trkpt>
      <trkpt lat="45.18344" lon="5.59289">
        <ele>1559.4</ele>
        <time>2015-01-02T10:28:42Z</time>
      </trkpt>
      <trkpt lat="45.18351" lon="5.5929">
        <ele>1560.84</ele>
        <time>2015-01-02T10:28:49Z</time>
      </trkpt>
      <trkpt lat="45.18362" lon="5.59294">
        <ele>1561.32</ele>
        <time>2015-01-02T10:29:02Z</time>
      </trkpt>
      <trkpt lat="45.18377" lon="5.59307">
        <ele>1561.8</ele>
        <time>2015-01-02T10:29:18Z</time>
      </trkpt>
      <trkpt lat="45.1839" lon="5.59323">
        <ele>1560.84</ele>
        <time>2015-01-02T10:29:29Z</time>
      </trkpt>
      <trkpt lat="45.18401" lon="5.5934">
        <ele>1560.36</ele>
        <time>2015-01-02T10:29:42Z</time>
      </trkpt>
      <trkpt lat="45.18407" lon="5.59353">
        <ele>1560.84</ele>
        <time>2015-01-02T10:29:51Z</time>
      </trkpt>
      <trkpt lat="45.18408" lon="5.59354">
        <ele>1561.32</ele>
        <time>2015-01-02T10:29:52Z</time>
      </trkpt>
      <trkpt lat="45.1842" lon="5.59371">
        <ele>1560.84</ele>
        <time>2015-01-02T10:30:04Z</time>
      </trkpt>
      <trkpt lat="45.18439" lon="5.59396">
        <ele>1558.92</ele>
        <time>2015-01-02T10:30:19Z</time>
      </trkpt>
      <trkpt lat="45.18451" lon="5.59415">
        <ele>1559.4</ele>
        <time>2015-01-02T10:30:31Z</time>
      </trkpt>
      <trkpt lat="45.18461" lon="5.59429">
        <ele>1559.4</ele>
        <time>2015-01-02T10:30:42Z</time>
      </trkpt>
      <trkpt lat="45.18473" lon="5.59444">
        <ele>1559.4</ele>
        <time>2015-01-02T10:30:54Z</time>
      </trkpt>
      <trkpt lat="45.18484" lon="5.5946">
        <ele>1560.84</ele>
        <time>2015-01-02T10:31:06Z</time>
      </trkpt>
      <trkpt lat="45.18485" lon="5.59461">
        <ele>1560.36</ele>
        <time>2015-01-02T10:31:07Z</time>
      </trkpt>
      <trkpt lat="45.18497" lon="5.59471">
        <ele>1560.36</ele>
        <time>2015-01-02T10:31:20Z</time>
      </trkpt>
      <trkpt lat="45.1851" lon="5.59481">
        <ele>1560.84</ele>
        <time>2015-01-02T10:31:33Z</time>
      </trkpt>
      <trkpt lat="45.18519" lon="5.59487">
        <ele>1561.8</ele>
        <time>2015-01-02T10:31:46Z</time>
      </trkpt>
      <trkpt lat="45.18521" lon="5.59488">
        <ele>1561.8</ele>
        <time>2015-01-02T10:32:00Z</time>
      </trkpt>
      <trkpt lat="45.18521" lon="5.59488">
        <ele>1560.36</ele>
        <time>2015-01-02T10:32:20Z</time>
      </trkpt>
      <trkpt lat="45.18521" lon="5.59489">
        <ele>1561.32</ele>
        <time>2015-01-02T10:32:24Z</time>
      </trkpt>
      <trkpt lat="45.18521" lon="5.59489">
        <ele>1561.8</ele>
        <time>2015-01-02T10:32:36Z</time>
      </trkpt>
      <trkpt lat="45.1852" lon="5.59488">
        <ele>1560.84</ele>
        <time>2015-01-02T10:32:53Z</time>
      </trkpt>
      <trkpt lat="45.1852" lon="5.59488">
        <ele>1562.28</ele>
        <time>2015-01-02T10:32:56Z</time>
      </trkpt>
      <trkpt lat="45.18522" lon="5.59492">
        <ele>1562.28</ele>
        <time>2015-01-02T10:33:19Z</time>
      </trkpt>
      <trkpt lat="45.18537" lon="5.59503">
        <ele>1563.24</ele>
        <time>2015-01-02T10:33:32Z</time>
      </trkpt>
      <trkpt lat="45.18547" lon="5.59511">
        <ele>1564.2</ele>
        <time>2015-01-02T10:33:45Z</time>
      </trkpt>
      <trkpt lat="45.18553" lon="5.59516">
        <ele>1564.2</ele>
        <time>2015-01-02T10:33:53Z</time>
      </trkpt>
      <trkpt lat="45.18556" lon="5.59518">
        <ele>1564.2</ele>
        <time>2015-01-02T10:33:56Z</time>
      </trkpt>
      <trkpt lat="45.1856" lon="5.59519">
        <ele>1564.2</ele>
        <time>2015-01-02T10:34:00Z</time>
      </trkpt>
      <trkpt lat="45.18574" lon="5.5952">
        <ele>1563.72</ele>
        <time>2015-01-02T10:34:12Z</time>
      </trkpt>
      <trkpt lat="45.18581" lon="5.59521">
        <ele>1563.24</ele>
        <time>2015-01-02T10:34:18Z</time>
      </trkpt>
      <trkpt lat="45.18598" lon="5.59523">
        <ele>1563.24</ele>
        <time>2015-01-02T10:34:31Z</time>
      </trkpt>
      <trkpt lat="45.18602" lon="5.59525">
        <ele>1563.72</ele>
        <time>2015-01-02T10:34:35Z</time>
      </trkpt>
      <trkpt lat="45.18606" lon="5.59526">
        <ele>1564.2</ele>
        <time>2015-01-02T10:34:39Z</time>
      </trkpt>
      <trkpt lat="45.1861" lon="5.59527">
        <ele>1563.72</ele>
        <time>2015-01-02T10:34:45Z</time>
      </trkpt>
      <trkpt lat="45.1861" lon="5.59527">
        <ele>1564.68</ele>
        <time>2015-01-02T10:35:05Z</time>
      </trkpt>
      <trkpt lat="45.1861" lon="5.59527">
        <ele>1564.68</ele>
        <time>2015-01-02T10:35:21Z</time>
      </trkpt>
      <trkpt lat="45.18614" lon="5.59527">
        <ele>1564.68</ele>
        <time>2015-01-02T10:35:36Z</time>
      </trkpt>
      <trkpt lat="45.18614" lon="5.59527">
        <ele>1564.68</ele>
        <time>2015-01-02T10:35:59Z</time>
      </trkpt>
      <trkpt lat="45.18614" lon="5.59527">
        <ele>1564.68</ele>
        <time>2015-01-02T10:36:29Z</time>
      </trkpt>
      <trkpt lat="45.18614" lon="5.59527">
        <ele>1568.05</ele>
        <time>2015-01-02T10:36:41Z</time>
      </trkpt>
      <trkpt lat="45.18614" lon="5.59527">
        <ele>1565.64</ele>
        <time>2015-01-02T10:36:42Z</time>
      </trkpt>
      <trkpt lat="45.18614" lon="5.59527">
        <ele>1564.68</ele>
        <time>2015-01-02T10:36:44Z</time>
      </trkpt>
      <trkpt lat="45.18617" lon="5.59527">
        <ele>1565.16</ele>
        <time>2015-01-02T10:37:05Z</time>
      </trkpt>
      <trkpt lat="45.18632" lon="5.59527">
        <ele>1566.61</ele>
        <time>2015-01-02T10:37:20Z</time>
      </trkpt>
      <trkpt lat="45.18639" lon="5.59526">
        <ele>1566.61</ele>
        <time>2015-01-02T10:37:28Z</time>
      </trkpt>
      <trkpt lat="45.18646" lon="5.59528">
        <ele>1567.57</ele>
        <time>2015-01-02T10:37:36Z</time>
      </trkpt>
      <trkpt lat="45.18654" lon="5.59528">
        <ele>1567.09</ele>
        <time>2015-01-02T10:37:44Z</time>
      </trkpt>
      <trkpt lat="45.18669" lon="5.5953">
        <ele>1568.05</ele>
        <time>2015-01-02T10:37:58Z</time>
      </trkpt>
      <trkpt lat="45.18676" lon="5.59532">
        <ele>1568.05</ele>
        <time>2015-01-02T10:38:08Z</time>
      </trkpt>
      <trkpt lat="45.18685" lon="5.59532">
        <ele>1568.53</ele>
        <time>2015-01-02T10:38:19Z</time>
      </trkpt>
      <trkpt lat="45.18687" lon="5.59534">
        <ele>1568.53</ele>
        <time>2015-01-02T10:38:22Z</time>
      </trkpt>
      <trkpt lat="45.18696" lon="5.59538">
        <ele>1569.49</ele>
        <time>2015-01-02T10:38:32Z</time>
      </trkpt>
      <trkpt lat="45.18698" lon="5.59538">
        <ele>1569.49</ele>
        <time>2015-01-02T10:38:34Z</time>
      </trkpt>
      <trkpt lat="45.18701" lon="5.59539">
        <ele>1569.49</ele>
        <time>2015-01-02T10:38:37Z</time>
      </trkpt>
      <trkpt lat="45.18704" lon="5.59538">
        <ele>1569.01</ele>
        <time>2015-01-02T10:38:40Z</time>
      </trkpt>
      <trkpt lat="45.18719" lon="5.59541">
        <ele>1571.41</ele>
        <time>2015-01-02T10:38:55Z</time>
      </trkpt>
      <trkpt lat="45.18733" lon="5.59543">
        <ele>1570.93</ele>
        <time>2015-01-02T10:39:09Z</time>
      </trkpt>
      <trkpt lat="45.18746" lon="5.59542">
        <ele>1572.37</ele>
        <time>2015-01-02T10:39:22Z</time>
      </trkpt>
      <trkpt lat="45.18759" lon="5.59544">
        <ele>1572.85</ele>
        <time>2015-01-02T10:39:36Z</time>
      </trkpt>
      <trkpt lat="45.18773" lon="5.59543">
        <ele>1574.78</ele>
        <time>2015-01-02T10:39:52Z</time>
      </trkpt>
      <trkpt lat="45.18774" lon="5.59543">
        <ele>1573.82</ele>
        <time>2015-01-02T10:39:54Z</time>
      </trkpt>
      <trkpt lat="45.18783" lon="5.59539">
        <ele>1574.78</ele>
        <time>2015-01-02T10:40:08Z</time>
      </trkpt>
      <trkpt lat="45.18789" lon="5.5953">
        <ele>1576.7</ele>
        <time>2015-01-02T10:40:20Z</time>
      </trkpt>
      <trkpt lat="45.18796" lon="5.59528">
        <ele>1576.22</ele>
        <time>2015-01-02T10:40:28Z</time>
      </trkpt>
      <trkpt lat="45.18804" lon="5.59527">
        <ele>1579.1</ele>
        <time>2015-01-02T10:40:41Z</time>
      </trkpt>
      <trkpt lat="45.18815" lon="5.59526">
        <ele>1581.99</ele>
        <time>2015-01-02T10:40:56Z</time>
      </trkpt>
      <trkpt lat="45.18822" lon="5.59524">
        <ele>1581.99</ele>
        <time>2015-01-02T10:41:10Z</time>
      </trkpt>
      <trkpt lat="45.18824" lon="5.59523">
        <ele>1581.51</ele>
        <time>2015-01-02T10:41:13Z</time>
      </trkpt>
      <trkpt lat="45.18838" lon="5.59514">
        <ele>1578.14</ele>
        <time>2015-01-02T10:41:23Z</time>
      </trkpt>
      <trkpt lat="45.18846" lon="5.59509">
        <ele>1574.78</ele>
        <time>2015-01-02T10:41:28Z</time>
      </trkpt>
      <trkpt lat="45.18846" lon="5.59509">
        <ele>1577.66</ele>
        <time>2015-01-02T10:41:32Z</time>
      </trkpt>
      <trkpt lat="45.18851" lon="5.59503">
        <ele>1579.58</ele>
        <time>2015-01-02T10:41:45Z</time>
      </trkpt>
      <trkpt lat="45.18858" lon="5.595">
        <ele>1579.58</ele>
        <time>2015-01-02T10:42:01Z</time>
      </trkpt>
      <trkpt lat="45.18867" lon="5.59502">
        <ele>1581.51</ele>
        <time>2015-01-02T10:42:15Z</time>
      </trkpt>
      <trkpt lat="45.18876" lon="5.59502">
        <ele>1581.99</ele>
        <time>2015-01-02T10:42:34Z</time>
      </trkpt>
      <trkpt lat="45.18881" lon="5.595">
        <ele>1581.03</ele>
        <time>2015-01-02T10:42:51Z</time>
      </trkpt>
      <trkpt lat="45.18881" lon="5.59497">
        <ele>1580.06</ele>
        <time>2015-01-02T10:43:02Z</time>
      </trkpt>
      <trkpt lat="45.18868" lon="5.59484">
        <ele>1577.66</ele>
        <time>2015-01-02T10:43:12Z</time>
      </trkpt>
      <trkpt lat="45.18866" lon="5.5948">
        <ele>1576.22</ele>
        <time>2015-01-02T10:43:15Z</time>
      </trkpt>
      <trkpt lat="45.18866" lon="5.5948">
        <ele>1577.66</ele>
        <time>2015-01-02T10:43:20Z</time>
      </trkpt>
      <trkpt lat="45.18866" lon="5.5948">
        <ele>1576.7</ele>
        <time>2015-01-02T10:43:22Z</time>
      </trkpt>
      <trkpt lat="45.18865" lon="5.59478">
        <ele>1576.22</ele>
        <time>2015-01-02T10:43:27Z</time>
      </trkpt>
      <trkpt lat="45.18865" lon="5.59478">
        <ele>1576.7</ele>
        <time>2015-01-02T10:43:35Z</time>
      </trkpt>
      <trkpt lat="45.18867" lon="5.59473">
        <ele>1575.74</ele>
        <time>2015-01-02T10:43:38Z</time>
      </trkpt>
      <trkpt lat="45.18868" lon="5.59464">
        <ele>1575.74</ele>
        <time>2015-01-02T10:43:43Z</time>
      </trkpt>
      <trkpt lat="45.18869" lon="5.59448">
        <ele>1576.22</ele>
        <time>2015-01-02T10:43:53Z</time>
      </trkpt>
      <trkpt lat="45.18871" lon="5.5943">
        <ele>1575.26</ele>
        <time>2015-01-02T10:44:06Z</time>
      </trkpt>
      <trkpt lat="45.18869" lon="5.59422">
        <ele>1578.62</ele>
        <time>2015-01-02T10:44:16Z</time>
      </trkpt>
      <trkpt lat="45.18872" lon="5.59415">
        <ele>1577.66</ele>
        <time>2015-01-02T10:44:30Z</time>
      </trkpt>
      <trkpt lat="45.18874" lon="5.59413">
        <ele>1578.62</ele>
        <time>2015-01-02T10:44:33Z</time>
      </trkpt>
      <trkpt lat="45.18882" lon="5.59401">
        <ele>1579.1</ele>
        <time>2015-01-02T10:44:46Z</time>
      </trkpt>
      <trkpt lat="45.18889" lon="5.59391">
        <ele>1581.03</ele>
        <time>2015-01-02T10:44:59Z</time>
      </trkpt>
      <trkpt lat="45.18894" lon="5.59383">
        <ele>1582.47</ele>
        <time>2015-01-02T10:45:11Z</time>
      </trkpt>
      <trkpt lat="45.18902" lon="5.59372">
        <ele>1582.95</ele>
        <time>2015-01-02T10:45:24Z</time>
      </trkpt>
      <trkpt lat="45.18904" lon="5.59369">
        <ele>1583.43</ele>
        <time>2015-01-02T10:45:37Z</time>
      </trkpt>
      <trkpt lat="45.18907" lon="5.59366">
        <ele>1585.35</ele>
        <time>2015-01-02T10:45:51Z</time>
      </trkpt>
      <trkpt lat="45.18916" lon="5.59359">
        <ele>1586.79</ele>
        <time>2015-01-02T10:46:05Z</time>
      </trkpt>
      <trkpt lat="45.18927" lon="5.59354">
        <ele>1588.24</ele>
        <time>2015-01-02T10:46:20Z</time>
      </trkpt>
      <trkpt lat="45.18933" lon="5.59351">
        <ele>1588.72</ele>
        <time>2015-01-02T10:46:29Z</time>
      </trkpt>
      <trkpt lat="45.18947" lon="5.59347">
        <ele>1589.68</ele>
        <time>2015-01-02T10:46:44Z</time>
      </trkpt>
      <trkpt lat="45.18961" lon="5.59345">
        <ele>1591.6</ele>
        <time>2015-01-02T10:46:59Z</time>
      </trkpt>
      <trkpt lat="45.18965" lon="5.59345">
        <ele>1591.12</ele>
        <time>2015-01-02T10:47:05Z</time>
      </trkpt>
      <trkpt lat="45.18972" lon="5.59344">
        <ele>1592.56</ele>
        <time>2015-01-02T10:47:12Z</time>
      </trkpt>
      <trkpt lat="45.18987" lon="5.59342">
        <ele>1593.52</ele>
        <time>2015-01-02T10:47:28Z</time>
      </trkpt>
      <trkpt lat="45.19003" lon="5.5934">
        <ele>1593.04</ele>
        <time>2015-01-02T10:47:43Z</time>
      </trkpt>
      <trkpt lat="45.19017" lon="5.59338">
        <ele>1594.48</ele>
        <time>2015-01-02T10:47:58Z</time>
      </trkpt>
      <trkpt lat="45.19022" lon="5.59337">
        <ele>1595.45</ele>
        <time>2015-01-02T10:48:05Z</time>
      </trkpt>
      <trkpt lat="45.19027" lon="5.59337">
        <ele>1594.96</ele>
        <time>2015-01-02T10:48:09Z</time>
      </trkpt>
      <trkpt lat="45.19035" lon="5.59338">
        <ele>1596.41</ele>
        <time>2015-01-02T10:48:18Z</time>
      </trkpt>
      <trkpt lat="45.19049" lon="5.59336">
        <ele>1597.85</ele>
        <time>2015-01-02T10:48:35Z</time>
      </trkpt>
      <trkpt lat="45.19054" lon="5.59338">
        <ele>1598.33</ele>
        <time>2015-01-02T10:48:41Z</time>
      </trkpt>
      <trkpt lat="45.1907" lon="5.59339">
        <ele>1599.29</ele>
        <time>2015-01-02T10:48:57Z</time>
      </trkpt>
      <trkpt lat="45.19072" lon="5.59339">
        <ele>1598.81</ele>
        <time>2015-01-02T10:48:59Z</time>
      </trkpt>
      <trkpt lat="45.1909" lon="5.59338">
        <ele>1598.33</ele>
        <time>2015-01-02T10:49:15Z</time>
      </trkpt>
      <trkpt lat="45.19105" lon="5.5934">
        <ele>1599.29</ele>
        <time>2015-01-02T10:49:29Z</time>
      </trkpt>
      <trkpt lat="45.19118" lon="5.59341">
        <ele>1600.25</ele>
        <time>2015-01-02T10:49:43Z</time>
      </trkpt>
      <trkpt lat="45.19123" lon="5.59341">
        <ele>1599.29</ele>
        <time>2015-01-02T10:49:52Z</time>
      </trkpt>
      <trkpt lat="45.19126" lon="5.59342">
        <ele>1599.77</ele>
        <time>2015-01-02T10:49:55Z</time>
      </trkpt>
      <trkpt lat="45.19142" lon="5.59341">
        <ele>1600.25</ele>
        <time>2015-01-02T10:50:10Z</time>
      </trkpt>
      <trkpt lat="45.19158" lon="5.59343">
        <ele>1601.69</ele>
        <time>2015-01-02T10:50:25Z</time>
      </trkpt>
      <trkpt lat="45.19173" lon="5.59344">
        <ele>1604.1</ele>
        <time>2015-01-02T10:50:40Z</time>
      </trkpt>
      <trkpt lat="45.19188" lon="5.59345">
        <ele>1602.66</ele>
        <time>2015-01-02T10:50:53Z</time>
      </trkpt>
      <trkpt lat="45.19202" lon="5.59349">
        <ele>1603.62</ele>
        <time>2015-01-02T10:51:05Z</time>
      </trkpt>
      <trkpt lat="45.19217" lon="5.59351">
        <ele>1603.62</ele>
        <time>2015-01-02T10:51:18Z</time>
      </trkpt>
      <trkpt lat="45.19221" lon="5.59351">
        <ele>1604.58</ele>
        <time>2015-01-02T10:51:22Z</time>
      </trkpt>
      <trkpt lat="45.19232" lon="5.59355">
        <ele>1604.58</ele>
        <time>2015-01-02T10:51:32Z</time>
      </trkpt>
      <trkpt lat="45.19247" lon="5.59361">
        <ele>1605.06</ele>
        <time>2015-01-02T10:51:47Z</time>
      </trkpt>
      <trkpt lat="45.1926" lon="5.59364">
        <ele>1606.02</ele>
        <time>2015-01-02T10:52:01Z</time>
      </trkpt>
      <trkpt lat="45.19275" lon="5.59367">
        <ele>1608.42</ele>
        <time>2015-01-02T10:52:16Z</time>
      </trkpt>
      <trkpt lat="45.19281" lon="5.59367">
        <ele>1607.46</ele>
        <time>2015-01-02T10:52:23Z</time>
      </trkpt>
      <trkpt lat="45.19285" lon="5.59366">
        <ele>1608.9</ele>
        <time>2015-01-02T10:52:27Z</time>
      </trkpt>
      <trkpt lat="45.19303" lon="5.59368">
        <ele>1609.38</ele>
        <time>2015-01-02T10:52:43Z</time>
      </trkpt>
      <trkpt lat="45.19317" lon="5.5937">
        <ele>1610.83</ele>
        <time>2015-01-02T10:52:57Z</time>
      </trkpt>
      <trkpt lat="45.19335" lon="5.59374">
        <ele>1610.35</ele>
        <time>2015-01-02T10:53:12Z</time>
      </trkpt>
      <trkpt lat="45.1935" lon="5.59376">
        <ele>1611.31</ele>
        <time>2015-01-02T10:53:27Z</time>
      </trkpt>
      <trkpt lat="45.19358" lon="5.59378">
        <ele>1612.75</ele>
        <time>2015-01-02T10:53:34Z</time>
      </trkpt>
      <trkpt lat="45.19372" lon="5.5938">
        <ele>1612.27</ele>
        <time>2015-01-02T10:53:49Z</time>
      </trkpt>
      <trkpt lat="45.19385" lon="5.59382">
        <ele>1612.75</ele>
        <time>2015-01-02T10:54:01Z</time>
      </trkpt>
      <trkpt lat="45.19402" lon="5.59375">
        <ele>1613.71</ele>
        <time>2015-01-02T10:54:17Z</time>
      </trkpt>
      <trkpt lat="45.19409" lon="5.59377">
        <ele>1616.11</ele>
        <time>2015-01-02T10:54:30Z</time>
      </trkpt>
      <trkpt lat="45.19409" lon="5.59377">
        <ele>1615.15</ele>
        <time>2015-01-02T10:54:31Z</time>
      </trkpt>
      <trkpt lat="45.19409" lon="5.59378">
        <ele>1615.15</ele>
        <time>2015-01-02T10:54:44Z</time>
      </trkpt>
      <trkpt lat="45.19409" lon="5.59378">
        <ele>1613.23</ele>
        <time>2015-01-02T10:55:00Z</time>
      </trkpt>
      <trkpt lat="45.19408" lon="5.59379">
        <ele>1613.71</ele>
        <time>2015-01-02T10:55:28Z</time>
      </trkpt>
      <trkpt lat="45.19408" lon="5.5938">
        <ele>1614.19</ele>
        <time>2015-01-02T10:55:49Z</time>
      </trkpt>
      <trkpt lat="45.19408" lon="5.5938">
        <ele>1614.19</ele>
        <time>2015-01-02T10:55:53Z</time>
      </trkpt>
      <trkpt lat="45.19408" lon="5.59381">
        <ele>1614.19</ele>
        <time>2015-01-02T10:56:13Z</time>
      </trkpt>
      <trkpt lat="45.1941" lon="5.59383">
        <ele>1614.67</ele>
        <time>2015-01-02T10:56:26Z</time>
      </trkpt>
      <trkpt lat="45.19412" lon="5.5939">
        <ele>1615.63</ele>
        <time>2015-01-02T10:56:40Z</time>
      </trkpt>
      <trkpt lat="45.19413" lon="5.59393">
        <ele>1615.63</ele>
        <time>2015-01-02T10:56:44Z</time>
      </trkpt>
      <trkpt lat="45.19418" lon="5.59406">
        <ele>1615.15</ele>
        <time>2015-01-02T10:56:58Z</time>
      </trkpt>
      <trkpt lat="45.19418" lon="5.59404">
        <ele>1615.63</ele>
        <time>2015-01-02T10:57:18Z</time>
      </trkpt>
      <trkpt lat="45.19419" lon="5.59406">
        <ele>1615.63</ele>
        <time>2015-01-02T10:57:30Z</time>
      </trkpt>
      <trkpt lat="45.19415" lon="5.59404">
        <ele>1615.63</ele>
        <time>2015-01-02T10:57:44Z</time>
      </trkpt>
      <trkpt lat="45.19419" lon="5.59406">
        <ele>1615.15</ele>
        <time>2015-01-02T10:58:13Z</time>
      </trkpt>
      <trkpt lat="45.1942" lon="5.59405">
        <ele>1616.11</ele>
        <time>2015-01-02T10:58:21Z</time>
      </trkpt>
      <trkpt lat="45.1941" lon="5.59388">
        <ele>1615.15</ele>
        <time>2015-01-02T11:29:25Z</time>
      </trkpt>
      <trkpt lat="45.19408" lon="5.59382">
        <ele>1615.15</ele>
        <time>2015-01-02T11:29:26Z</time>
      </trkpt>
      <trkpt lat="45.19418" lon="5.59397">
        <ele>1611.31</ele>
        <time>2015-01-02T11:29:50Z</time>
      </trkpt>
      <trkpt lat="45.19418" lon="5.59399">
        <ele>1610.35</ele>
        <time>2015-01-02T11:30:07Z</time>
      </trkpt>
      <trkpt lat="45.19422" lon="5.59391">
        <ele>1608.9</ele>
        <time>2015-01-02T11:30:17Z</time>
      </trkpt>
      <trkpt lat="45.19432" lon="5.59389">
        <ele>1609.38</ele>
        <time>2015-01-02T11:30:28Z</time>
      </trkpt>
      <trkpt lat="45.19434" lon="5.59388">
        <ele>1609.38</ele>
        <time>2015-01-02T11:30:30Z</time>
      </trkpt>
      <trkpt lat="45.19447" lon="5.59384">
        <ele>1610.35</ele>
        <time>2015-01-02T11:30:44Z</time>
      </trkpt>
      <trkpt lat="45.1946" lon="5.59377">
        <ele>1610.35</ele>
        <time>2015-01-02T11:30:58Z</time>
      </trkpt>
      <trkpt lat="45.19463" lon="5.59375">
        <ele>1609.86</ele>
        <time>2015-01-02T11:31:02Z</time>
      </trkpt>
      <trkpt lat="45.19465" lon="5.59374">
        <ele>1609.86</ele>
        <time>2015-01-02T11:31:04Z</time>
      </trkpt>
      <trkpt lat="45.19476" lon="5.59368">
        <ele>1611.31</ele>
        <time>2015-01-02T11:31:17Z</time>
      </trkpt>
      <trkpt lat="45.19484" lon="5.59361">
        <ele>1611.79</ele>
        <time>2015-01-02T11:31:28Z</time>
      </trkpt>
      <trkpt lat="45.19488" lon="5.59359">
        <ele>1612.75</ele>
        <time>2015-01-02T11:31:32Z</time>
      </trkpt>
      <trkpt lat="45.195" lon="5.59349">
        <ele>1611.79</ele>
        <time>2015-01-02T11:31:46Z</time>
      </trkpt>
      <trkpt lat="45.19512" lon="5.5934">
        <ele>1611.79</ele>
        <time>2015-01-02T11:31:58Z</time>
      </trkpt>
      <trkpt lat="45.19514" lon="5.59339">
        <ele>1611.31</ele>
        <time>2015-01-02T11:32:00Z</time>
      </trkpt>
      <trkpt lat="45.19517" lon="5.59337">
        <ele>1611.31</ele>
        <time>2015-01-02T11:32:03Z</time>
      </trkpt>
      <trkpt lat="45.1953" lon="5.59326">
        <ele>1611.79</ele>
        <time>2015-01-02T11:32:17Z</time>
      </trkpt>
      <trkpt lat="45.19533" lon="5.59323">
        <ele>1612.27</ele>
        <time>2015-01-02T11:32:21Z</time>
      </trkpt>
      <trkpt lat="45.19536" lon="5.59321">
        <ele>1612.27</ele>
        <time>2015-01-02T11:32:24Z</time>
      </trkpt>
      <trkpt lat="45.19539" lon="5.59318">
        <ele>1612.27</ele>
        <time>2015-01-02T11:32:27Z</time>
      </trkpt>
      <trkpt lat="45.19546" lon="5.59312">
        <ele>1612.75</ele>
        <time>2015-01-02T11:32:35Z</time>
      </trkpt>
      <trkpt lat="45.19549" lon="5.59308">
        <ele>1613.23</ele>
        <time>2015-01-02T11:32:39Z</time>
      </trkpt>
      <trkpt lat="45.19554" lon="5.59304">
        <ele>1613.71</ele>
        <time>2015-01-02T11:32:45Z</time>
      </trkpt>
      <trkpt lat="45.19558" lon="5.59301">
        <ele>1613.71</ele>
        <time>2015-01-02T11:32:50Z</time>
      </trkpt>
      <trkpt lat="45.19563" lon="5.59297">
        <ele>1614.19</ele>
        <time>2015-01-02T11:32:56Z</time>
      </trkpt>
      <trkpt lat="45.19566" lon="5.59295">
        <ele>1614.67</ele>
        <time>2015-01-02T11:32:59Z</time>
      </trkpt>
      <trkpt lat="45.1958" lon="5.59285">
        <ele>1615.15</ele>
        <time>2015-01-02T11:33:15Z</time>
      </trkpt>
      <trkpt lat="45.1959" lon="5.59276">
        <ele>1616.59</ele>
        <time>2015-01-02T11:33:27Z</time>
      </trkpt>
      <trkpt lat="45.1959" lon="5.59275">
        <ele>1616.11</ele>
        <time>2015-01-02T11:33:28Z</time>
      </trkpt>
      <trkpt lat="45.19592" lon="5.59274">
        <ele>1616.11</ele>
        <time>2015-01-02T11:33:30Z</time>
      </trkpt>
      <trkpt lat="45.19603" lon="5.59265">
        <ele>1616.59</ele>
        <time>2015-01-02T11:33:43Z</time>
      </trkpt>
      <trkpt lat="45.19605" lon="5.59263">
        <ele>1617.07</ele>
        <time>2015-01-02T11:33:46Z</time>
      </trkpt>
      <trkpt lat="45.19618" lon="5.59255">
        <ele>1618.52</ele>
        <time>2015-01-02T11:34:00Z</time>
      </trkpt>
      <trkpt lat="45.19621" lon="5.59254">
        <ele>1618.04</ele>
        <time>2015-01-02T11:34:04Z</time>
      </trkpt>
      <trkpt lat="45.19628" lon="5.59249">
        <ele>1619</ele>
        <time>2015-01-02T11:34:17Z</time>
      </trkpt>
      <trkpt lat="45.19638" lon="5.59245">
        <ele>1619.96</ele>
        <time>2015-01-02T11:34:28Z</time>
      </trkpt>
      <trkpt lat="45.19641" lon="5.59244">
        <ele>1619.96</ele>
        <time>2015-01-02T11:34:31Z</time>
      </trkpt>
      <trkpt lat="45.19652" lon="5.59241">
        <ele>1621.4</ele>
        <time>2015-01-02T11:34:44Z</time>
      </trkpt>
      <trkpt lat="45.1966" lon="5.59238">
        <ele>1622.36</ele>
        <time>2015-01-02T11:34:52Z</time>
      </trkpt>
      <trkpt lat="45.19667" lon="5.59235">
        <ele>1622.36</ele>
        <time>2015-01-02T11:35:06Z</time>
      </trkpt>
      <trkpt lat="45.19668" lon="5.59234">
        <ele>1623.32</ele>
        <time>2015-01-02T11:35:08Z</time>
      </trkpt>
      <trkpt lat="45.19674" lon="5.59232">
        <ele>1623.8</ele>
        <time>2015-01-02T11:35:14Z</time>
      </trkpt>
      <trkpt lat="45.19685" lon="5.59228">
        <ele>1626.21</ele>
        <time>2015-01-02T11:35:27Z</time>
      </trkpt>
      <trkpt lat="45.19694" lon="5.59229">
        <ele>1626.21</ele>
        <time>2015-01-02T11:35:36Z</time>
      </trkpt>
      <trkpt lat="45.19707" lon="5.59231">
        <ele>1627.65</ele>
        <time>2015-01-02T11:35:49Z</time>
      </trkpt>
      <trkpt lat="45.1972" lon="5.5923">
        <ele>1627.17</ele>
        <time>2015-01-02T11:36:02Z</time>
      </trkpt>
      <trkpt lat="45.19732" lon="5.59227">
        <ele>1627.65</ele>
        <time>2015-01-02T11:36:13Z</time>
      </trkpt>
      <trkpt lat="45.19745" lon="5.59222">
        <ele>1628.13</ele>
        <time>2015-01-02T11:36:25Z</time>
      </trkpt>
      <trkpt lat="45.1976" lon="5.59217">
        <ele>1628.61</ele>
        <time>2015-01-02T11:36:38Z</time>
      </trkpt>
      <trkpt lat="45.19761" lon="5.59216">
        <ele>1628.13</ele>
        <time>2015-01-02T11:36:39Z</time>
      </trkpt>
      <trkpt lat="45.19775" lon="5.59204">
        <ele>1628.61</ele>
        <time>2015-01-02T11:36:53Z</time>
      </trkpt>
      <trkpt lat="45.19781" lon="5.59195">
        <ele>1627.65</ele>
        <time>2015-01-02T11:37:06Z</time>
      </trkpt>
      <trkpt lat="45.19782" lon="5.59195">
        <ele>1627.65</ele>
        <time>2015-01-02T11:37:23Z</time>
      </trkpt>
      <trkpt lat="45.19782" lon="5.59195">
        <ele>1628.13</ele>
        <time>2015-01-02T11:37:47Z</time>
      </trkpt>
      <trkpt lat="45.19782" lon="5.59195">
        <ele>1628.13</ele>
        <time>2015-01-02T11:38:10Z</time>
      </trkpt>
      <trkpt lat="45.19787" lon="5.5919">
        <ele>1628.13</ele>
        <time>2015-01-02T11:38:28Z</time>
      </trkpt>
      <trkpt lat="45.19788" lon="5.59185">
        <ele>1628.13</ele>
        <time>2015-01-02T11:38:45Z</time>
      </trkpt>
      <trkpt lat="45.19788" lon="5.5918">
        <ele>1628.13</ele>
        <time>2015-01-02T11:39:01Z</time>
      </trkpt>
      <trkpt lat="45.19788" lon="5.5918">
        <ele>1628.13</ele>
        <time>2015-01-02T11:39:23Z</time>
      </trkpt>
      <trkpt lat="45.19787" lon="5.59179">
        <ele>1628.13</ele>
        <time>2015-01-02T11:39:51Z</time>
      </trkpt>
      <trkpt lat="45.19787" lon="5.59179">
        <ele>1628.13</ele>
        <time>2015-01-02T11:40:14Z</time>
      </trkpt>
      <trkpt lat="45.19787" lon="5.5918">
        <ele>1628.13</ele>
        <time>2015-01-02T11:40:41Z</time>
      </trkpt>
      <trkpt lat="45.19786" lon="5.59186">
        <ele>1628.61</ele>
        <time>2015-01-02T11:40:54Z</time>
      </trkpt>
      <trkpt lat="45.19784" lon="5.5919">
        <ele>1628.61</ele>
        <time>2015-01-02T11:41:09Z</time>
      </trkpt>
      <trkpt lat="45.19777" lon="5.59197">
        <ele>1628.61</ele>
        <time>2015-01-02T11:41:22Z</time>
      </trkpt>
      <trkpt lat="45.19773" lon="5.59203">
        <ele>1629.09</ele>
        <time>2015-01-02T11:41:40Z</time>
      </trkpt>
      <trkpt lat="45.19767" lon="5.59209">
        <ele>1628.61</ele>
        <time>2015-01-02T11:41:49Z</time>
      </trkpt>
      <trkpt lat="45.19764" lon="5.59212">
        <ele>1628.13</ele>
        <time>2015-01-02T11:41:54Z</time>
      </trkpt>
      <trkpt lat="45.19749" lon="5.59219">
        <ele>1629.09</ele>
        <time>2015-01-02T11:42:07Z</time>
      </trkpt>
      <trkpt lat="45.19733" lon="5.59225">
        <ele>1628.61</ele>
        <time>2015-01-02T11:42:21Z</time>
      </trkpt>
      <trkpt lat="45.19718" lon="5.59229">
        <ele>1628.61</ele>
        <time>2015-01-02T11:42:32Z</time>
      </trkpt>
      <trkpt lat="45.19699" lon="5.59234">
        <ele>1627.17</ele>
        <time>2015-01-02T11:42:45Z</time>
      </trkpt>
      <trkpt lat="45.19673" lon="5.59239">
        <ele>1624.28</ele>
        <time>2015-01-02T11:42:55Z</time>
      </trkpt>
      <trkpt lat="45.19647" lon="5.59242">
        <ele>1622.84</ele>
        <time>2015-01-02T11:43:07Z</time>
      </trkpt>
      <trkpt lat="45.1962" lon="5.59253">
        <ele>1619.96</ele>
        <time>2015-01-02T11:43:21Z</time>
      </trkpt>
      <trkpt lat="45.196" lon="5.59265">
        <ele>1619</ele>
        <time>2015-01-02T11:43:35Z</time>
      </trkpt>
      <trkpt lat="45.19568" lon="5.59291">
        <ele>1616.59</ele>
        <time>2015-01-02T11:43:53Z</time>
      </trkpt>
      <trkpt lat="45.19549" lon="5.59307">
        <ele>1615.63</ele>
        <time>2015-01-02T11:44:08Z</time>
      </trkpt>
      <trkpt lat="45.19541" lon="5.59316">
        <ele>1614.67</ele>
        <time>2015-01-02T11:44:20Z</time>
      </trkpt>
      <trkpt lat="45.19539" lon="5.59317">
        <ele>1614.67</ele>
        <time>2015-01-02T11:44:22Z</time>
      </trkpt>
      <trkpt lat="45.19518" lon="5.59335">
        <ele>1614.67</ele>
        <time>2015-01-02T11:44:37Z</time>
      </trkpt>
      <trkpt lat="45.19512" lon="5.5934">
        <ele>1613.71</ele>
        <time>2015-01-02T11:44:42Z</time>
      </trkpt>
      <trkpt lat="45.19504" lon="5.59344">
        <ele>1614.67</ele>
        <time>2015-01-02T11:44:50Z</time>
      </trkpt>
      <trkpt lat="45.195" lon="5.59347">
        <ele>1615.15</ele>
        <time>2015-01-02T11:44:55Z</time>
      </trkpt>
      <trkpt lat="45.19496" lon="5.59348">
        <ele>1614.67</ele>
        <time>2015-01-02T11:44:59Z</time>
      </trkpt>
      <trkpt lat="45.19492" lon="5.5935">
        <ele>1615.63</ele>
        <time>2015-01-02T11:45:02Z</time>
      </trkpt>
      <trkpt lat="45.19474" lon="5.59362">
        <ele>1614.67</ele>
        <time>2015-01-02T11:45:18Z</time>
      </trkpt>
      <trkpt lat="45.19457" lon="5.59368">
        <ele>1612.75</ele>
        <time>2015-01-02T11:45:31Z</time>
      </trkpt>
      <trkpt lat="45.1944" lon="5.5937">
        <ele>1613.23</ele>
        <time>2015-01-02T11:45:44Z</time>
      </trkpt>
      <trkpt lat="45.19427" lon="5.59369">
        <ele>1612.27</ele>
        <time>2015-01-02T11:45:54Z</time>
      </trkpt>
      <trkpt lat="45.19403" lon="5.59369">
        <ele>1611.79</ele>
        <time>2015-01-02T11:46:07Z</time>
      </trkpt>
      <trkpt lat="45.1938" lon="5.59369">
        <ele>1609.86</ele>
        <time>2015-01-02T11:46:21Z</time>
      </trkpt>
      <trkpt lat="45.19373" lon="5.5937">
        <ele>1609.86</ele>
        <time>2015-01-02T11:46:26Z</time>
      </trkpt>
      <trkpt lat="45.19355" lon="5.59372">
        <ele>1609.38</ele>
        <time>2015-01-02T11:46:39Z</time>
      </trkpt>
      <trkpt lat="45.19336" lon="5.59372">
        <ele>1608.42</ele>
        <time>2015-01-02T11:46:51Z</time>
      </trkpt>
      <trkpt lat="45.19319" lon="5.59369">
        <ele>1607.94</ele>
        <time>2015-01-02T11:47:04Z</time>
      </trkpt>
      <trkpt lat="45.19289" lon="5.59366">
        <ele>1606.5</ele>
        <time>2015-01-02T11:47:21Z</time>
      </trkpt>
      <trkpt lat="45.19268" lon="5.59363">
        <ele>1605.06</ele>
        <time>2015-01-02T11:47:34Z</time>
      </trkpt>
      <trkpt lat="45.19249" lon="5.5936">
        <ele>1604.1</ele>
        <time>2015-01-02T11:47:47Z</time>
      </trkpt>
      <trkpt lat="45.19227" lon="5.59352">
        <ele>1602.66</ele>
        <time>2015-01-02T11:47:59Z</time>
      </trkpt>
      <trkpt lat="45.19225" lon="5.59351">
        <ele>1601.69</ele>
        <time>2015-01-02T11:48:01Z</time>
      </trkpt>
      <trkpt lat="45.19222" lon="5.59351">
        <ele>1603.14</ele>
        <time>2015-01-02T11:48:04Z</time>
      </trkpt>
      <trkpt lat="45.19214" lon="5.5935">
        <ele>1603.14</ele>
        <time>2015-01-02T11:48:11Z</time>
      </trkpt>
      <trkpt lat="45.19197" lon="5.59346">
        <ele>1601.69</ele>
        <time>2015-01-02T11:48:23Z</time>
      </trkpt>
      <trkpt lat="45.19183" lon="5.59342">
        <ele>1601.69</ele>
        <time>2015-01-02T11:48:34Z</time>
      </trkpt>
      <trkpt lat="45.19167" lon="5.59341">
        <ele>1601.69</ele>
        <time>2015-01-02T11:48:45Z</time>
      </trkpt>
      <trkpt lat="45.19135" lon="5.59338">
        <ele>1599.29</ele>
        <time>2015-01-02T11:49:01Z</time>
      </trkpt>
      <trkpt lat="45.1912" lon="5.59338">
        <ele>1598.81</ele>
        <time>2015-01-02T11:49:11Z</time>
      </trkpt>
      <trkpt lat="45.1911" lon="5.59338">
        <ele>1598.33</ele>
        <time>2015-01-02T11:49:24Z</time>
      </trkpt>
      <trkpt lat="45.1909" lon="5.59336">
        <ele>1597.37</ele>
        <time>2015-01-02T11:49:38Z</time>
      </trkpt>
      <trkpt lat="45.19083" lon="5.59336">
        <ele>1597.85</ele>
        <time>2015-01-02T11:49:43Z</time>
      </trkpt>
      <trkpt lat="45.19079" lon="5.59336">
        <ele>1597.37</ele>
        <time>2015-01-02T11:49:46Z</time>
      </trkpt>
      <trkpt lat="45.19063" lon="5.59335">
        <ele>1597.85</ele>
        <time>2015-01-02T11:49:59Z</time>
      </trkpt>
      <trkpt lat="45.19043" lon="5.59335">
        <ele>1596.41</ele>
        <time>2015-01-02T11:50:12Z</time>
      </trkpt>
      <trkpt lat="45.19016" lon="5.59337">
        <ele>1593.52</ele>
        <time>2015-01-02T11:50:21Z</time>
      </trkpt>
      <trkpt lat="45.18998" lon="5.59339">
        <ele>1592.08</ele>
        <time>2015-01-02T11:50:30Z</time>
      </trkpt>
      <trkpt lat="45.18978" lon="5.59341">
        <ele>1592.08</ele>
        <time>2015-01-02T11:50:43Z</time>
      </trkpt>
      <trkpt lat="45.1896" lon="5.59344">
        <ele>1591.12</ele>
        <time>2015-01-02T11:50:55Z</time>
      </trkpt>
      <trkpt lat="45.18936" lon="5.59348">
        <ele>1588.72</ele>
        <time>2015-01-02T11:51:08Z</time>
      </trkpt>
      <trkpt lat="45.18912" lon="5.5936">
        <ele>1586.79</ele>
        <time>2015-01-02T11:51:24Z</time>
      </trkpt>
      <trkpt lat="45.18904" lon="5.59366">
        <ele>1584.87</ele>
        <time>2015-01-02T11:51:28Z</time>
      </trkpt>
      <trkpt lat="45.18898" lon="5.59373">
        <ele>1583.43</ele>
        <time>2015-01-02T11:51:31Z</time>
      </trkpt>
      <trkpt lat="45.18883" lon="5.59397">
        <ele>1580.06</ele>
        <time>2015-01-02T11:51:39Z</time>
      </trkpt>
      <trkpt lat="45.1888" lon="5.59401">
        <ele>1580.06</ele>
        <time>2015-01-02T11:51:40Z</time>
      </trkpt>
      <trkpt lat="45.18862" lon="5.59431">
        <ele>1577.66</ele>
        <time>2015-01-02T11:51:53Z</time>
      </trkpt>
      <trkpt lat="45.1886" lon="5.59438">
        <ele>1576.7</ele>
        <time>2015-01-02T11:51:57Z</time>
      </trkpt>
      <trkpt lat="45.18855" lon="5.59454">
        <ele>1577.66</ele>
        <time>2015-01-02T11:52:11Z</time>
      </trkpt>
      <trkpt lat="45.18849" lon="5.59473">
        <ele>1576.7</ele>
        <time>2015-01-02T11:52:22Z</time>
      </trkpt>
      <trkpt lat="45.18847" lon="5.59481">
        <ele>1578.14</ele>
        <time>2015-01-02T11:52:30Z</time>
      </trkpt>
      <trkpt lat="45.18846" lon="5.59483">
        <ele>1577.66</ele>
        <time>2015-01-02T11:52:32Z</time>
      </trkpt>
      <trkpt lat="45.18842" lon="5.59507">
        <ele>1576.22</ele>
        <time>2015-01-02T11:52:44Z</time>
      </trkpt>
      <trkpt lat="45.18841" lon="5.59513">
        <ele>1576.22</ele>
        <time>2015-01-02T11:52:46Z</time>
      </trkpt>
      <trkpt lat="45.18837" lon="5.59532">
        <ele>1577.18</ele>
        <time>2015-01-02T11:52:59Z</time>
      </trkpt>
      <trkpt lat="45.18837" lon="5.59533">
        <ele>1576.22</ele>
        <time>2015-01-02T11:53:01Z</time>
      </trkpt>
      <trkpt lat="45.18833" lon="5.5954">
        <ele>1578.62</ele>
        <time>2015-01-02T11:53:14Z</time>
      </trkpt>
      <trkpt lat="45.18832" lon="5.59541">
        <ele>1577.66</ele>
        <time>2015-01-02T11:53:16Z</time>
      </trkpt>
      <trkpt lat="45.18825" lon="5.59543">
        <ele>1578.62</ele>
        <time>2015-01-02T11:53:26Z</time>
      </trkpt>
      <trkpt lat="45.1882" lon="5.59542">
        <ele>1578.62</ele>
        <time>2015-01-02T11:53:30Z</time>
      </trkpt>
      <trkpt lat="45.188" lon="5.59538">
        <ele>1576.7</ele>
        <time>2015-01-02T11:53:45Z</time>
      </trkpt>
      <trkpt lat="45.18781" lon="5.59542">
        <ele>1574.78</ele>
        <time>2015-01-02T11:53:58Z</time>
      </trkpt>
      <trkpt lat="45.18776" lon="5.59542">
        <ele>1574.3</ele>
        <time>2015-01-02T11:54:12Z</time>
      </trkpt>
      <trkpt lat="45.18769" lon="5.59542">
        <ele>1573.33</ele>
        <time>2015-01-02T11:54:28Z</time>
      </trkpt>
      <trkpt lat="45.18769" lon="5.59542">
        <ele>1573.33</ele>
        <time>2015-01-02T11:54:34Z</time>
      </trkpt>
      <trkpt lat="45.18761" lon="5.59545">
        <ele>1572.85</ele>
        <time>2015-01-02T11:54:39Z</time>
      </trkpt>
      <trkpt lat="45.1874" lon="5.59542">
        <ele>1570.93</ele>
        <time>2015-01-02T11:54:52Z</time>
      </trkpt>
      <trkpt lat="45.18719" lon="5.59541">
        <ele>1570.45</ele>
        <time>2015-01-02T11:55:07Z</time>
      </trkpt>
      <trkpt lat="45.187" lon="5.59539">
        <ele>1569.49</ele>
        <time>2015-01-02T11:55:22Z</time>
      </trkpt>
      <trkpt lat="45.18677" lon="5.59536">
        <ele>1568.53</ele>
        <time>2015-01-02T11:55:36Z</time>
      </trkpt>
      <trkpt lat="45.18674" lon="5.59531">
        <ele>1569.49</ele>
        <time>2015-01-02T11:55:49Z</time>
      </trkpt>
      <trkpt lat="45.18673" lon="5.59531">
        <ele>1568.53</ele>
        <time>2015-01-02T11:55:50Z</time>
      </trkpt>
      <trkpt lat="45.18671" lon="5.5953">
        <ele>1568.05</ele>
        <time>2015-01-02T11:55:52Z</time>
      </trkpt>
      <trkpt lat="45.1867" lon="5.5953">
        <ele>1568.05</ele>
        <time>2015-01-02T11:55:53Z</time>
      </trkpt>
      <trkpt lat="45.18651" lon="5.59527">
        <ele>1567.57</ele>
        <time>2015-01-02T11:56:08Z</time>
      </trkpt>
      <trkpt lat="45.18625" lon="5.59528">
        <ele>1566.61</ele>
        <time>2015-01-02T11:56:22Z</time>
      </trkpt>
      <trkpt lat="45.18606" lon="5.59524">
        <ele>1564.68</ele>
        <time>2015-01-02T11:56:35Z</time>
      </trkpt>
      <trkpt lat="45.18594" lon="5.59521">
        <ele>1564.2</ele>
        <time>2015-01-02T11:56:48Z</time>
      </trkpt>
      <trkpt lat="45.18594" lon="5.59521">
        <ele>1564.2</ele>
        <time>2015-01-02T11:57:10Z</time>
      </trkpt>
      <trkpt lat="45.18596" lon="5.59512">
        <ele>1563.72</ele>
        <time>2015-01-02T11:57:23Z</time>
      </trkpt>
      <trkpt lat="45.18596" lon="5.59507">
        <ele>1564.2</ele>
        <time>2015-01-02T11:57:27Z</time>
      </trkpt>
      <trkpt lat="45.18596" lon="5.59496">
        <ele>1564.2</ele>
        <time>2015-01-02T11:57:36Z</time>
      </trkpt>
      <trkpt lat="45.18591" lon="5.59485">
        <ele>1562.76</ele>
        <time>2015-01-02T11:57:43Z</time>
      </trkpt>
      <trkpt lat="45.1858" lon="5.59478">
        <ele>1564.68</ele>
        <time>2015-01-02T11:57:59Z</time>
      </trkpt>
      <trkpt lat="45.18573" lon="5.59472">
        <ele>1564.68</ele>
        <time>2015-01-02T11:58:13Z</time>
      </trkpt>
      <trkpt lat="45.18568" lon="5.59471">
        <ele>1565.16</ele>
        <time>2015-01-02T11:58:27Z</time>
      </trkpt>
      <trkpt lat="45.1856" lon="5.59466">
        <ele>1565.16</ele>
        <time>2015-01-02T11:58:40Z</time>
      </trkpt>
      <trkpt lat="45.18556" lon="5.59464">
        <ele>1564.68</ele>
        <time>2015-01-02T11:58:45Z</time>
      </trkpt>
      <trkpt lat="45.18544" lon="5.59461">
        <ele>1564.68</ele>
        <time>2015-01-02T11:58:58Z</time>
      </trkpt>
      <trkpt lat="45.18533" lon="5.59452">
        <ele>1565.64</ele>
        <time>2015-01-02T11:59:13Z</time>
      </trkpt>
      <trkpt lat="45.18504" lon="5.59459">
        <ele>1563.24</ele>
        <time>2015-01-02T11:59:28Z</time>
      </trkpt>
      <trkpt lat="45.18496" lon="5.5946">
        <ele>1562.28</ele>
        <time>2015-01-02T11:59:38Z</time>
      </trkpt>
      <trkpt lat="45.18491" lon="5.59461">
        <ele>1561.8</ele>
        <time>2015-01-02T11:59:50Z</time>
      </trkpt>
      <trkpt lat="45.18487" lon="5.59458">
        <ele>1561.32</ele>
        <time>2015-01-02T11:59:54Z</time>
      </trkpt>
      <trkpt lat="45.18476" lon="5.59449">
        <ele>1560.84</ele>
        <time>2015-01-02T12:00:07Z</time>
      </trkpt>
      <trkpt lat="45.18467" lon="5.59438">
        <ele>1559.88</ele>
        <time>2015-01-02T12:00:23Z</time>
      </trkpt>
      <trkpt lat="45.18459" lon="5.59428">
        <ele>1561.8</ele>
        <time>2015-01-02T12:00:37Z</time>
      </trkpt>
      <trkpt lat="45.18459" lon="5.59427">
        <ele>1560.36</ele>
        <time>2015-01-02T12:00:54Z</time>
      </trkpt>
      <trkpt lat="45.18459" lon="5.59427">
        <ele>1560.36</ele>
        <time>2015-01-02T12:01:18Z</time>
      </trkpt>
      <trkpt lat="45.18459" lon="5.59427">
        <ele>1560.36</ele>
        <time>2015-01-02T12:01:41Z</time>
      </trkpt>
      <trkpt lat="45.18459" lon="5.59427">
        <ele>1562.28</ele>
        <time>2015-01-02T12:01:59Z</time>
      </trkpt>
      <trkpt lat="45.18459" lon="5.59427">
        <ele>1560.84</ele>
        <time>2015-01-02T12:02:02Z</time>
      </trkpt>
      <trkpt lat="45.18458" lon="5.59425">
        <ele>1559.4</ele>
        <time>2015-01-02T12:02:19Z</time>
      </trkpt>
      <trkpt lat="45.18456" lon="5.59421">
        <ele>1560.84</ele>
        <time>2015-01-02T12:02:23Z</time>
      </trkpt>
      <trkpt lat="45.18449" lon="5.59412">
        <ele>1559.4</ele>
        <time>2015-01-02T12:02:29Z</time>
      </trkpt>
      <trkpt lat="45.18445" lon="5.59402">
        <ele>1559.88</ele>
        <time>2015-01-02T12:02:35Z</time>
      </trkpt>
      <trkpt lat="45.18436" lon="5.5939">
        <ele>1559.88</ele>
        <time>2015-01-02T12:02:45Z</time>
      </trkpt>
      <trkpt lat="45.18433" lon="5.59387">
        <ele>1560.36</ele>
        <time>2015-01-02T12:02:49Z</time>
      </trkpt>
      <trkpt lat="45.18427" lon="5.59379">
        <ele>1561.32</ele>
        <time>2015-01-02T12:02:58Z</time>
      </trkpt>
      <trkpt lat="45.18416" lon="5.59366">
        <ele>1561.32</ele>
        <time>2015-01-02T12:03:12Z</time>
      </trkpt>
      <trkpt lat="45.18405" lon="5.59348">
        <ele>1561.32</ele>
        <time>2015-01-02T12:03:27Z</time>
      </trkpt>
      <trkpt lat="45.18395" lon="5.59333">
        <ele>1561.32</ele>
        <time>2015-01-02T12:03:39Z</time>
      </trkpt>
      <trkpt lat="45.18389" lon="5.59322">
        <ele>1560.36</ele>
        <time>2015-01-02T12:03:47Z</time>
      </trkpt>
      <trkpt lat="45.18378" lon="5.59307">
        <ele>1561.8</ele>
        <time>2015-01-02T12:04:01Z</time>
      </trkpt>
      <trkpt lat="45.18365" lon="5.59292">
        <ele>1562.28</ele>
        <time>2015-01-02T12:04:14Z</time>
      </trkpt>
      <trkpt lat="45.18348" lon="5.59287">
        <ele>1560.36</ele>
        <time>2015-01-02T12:04:28Z</time>
      </trkpt>
      <trkpt lat="45.18328" lon="5.59283">
        <ele>1558.43</ele>
        <time>2015-01-02T12:04:40Z</time>
      </trkpt>
      <trkpt lat="45.18316" lon="5.59282">
        <ele>1559.4</ele>
        <time>2015-01-02T12:04:52Z</time>
      </trkpt>
      <trkpt lat="45.18304" lon="5.59275">
        <ele>1559.88</ele>
        <time>2015-01-02T12:05:06Z</time>
      </trkpt>
      <trkpt lat="45.18292" lon="5.59254">
        <ele>1558.92</ele>
        <time>2015-01-02T12:05:20Z</time>
      </trkpt>
      <trkpt lat="45.18284" lon="5.5924">
        <ele>1558.92</ele>
        <time>2015-01-02T12:05:29Z</time>
      </trkpt>
      <trkpt lat="45.18277" lon="5.59235">
        <ele>1559.4</ele>
        <time>2015-01-02T12:05:37Z</time>
      </trkpt>
      <trkpt lat="45.18266" lon="5.59225">
        <ele>1558.92</ele>
        <time>2015-01-02T12:05:50Z</time>
      </trkpt>
      <trkpt lat="45.18251" lon="5.59207">
        <ele>1559.88</ele>
        <time>2015-01-02T12:06:04Z</time>
      </trkpt>
      <trkpt lat="45.18233" lon="5.59192">
        <ele>1558.43</ele>
        <time>2015-01-02T12:06:17Z</time>
      </trkpt>
      <trkpt lat="45.18218" lon="5.59182">
        <ele>1557.95</ele>
        <time>2015-01-02T12:06:28Z</time>
      </trkpt>
      <trkpt lat="45.18202" lon="5.59171">
        <ele>1557.47</ele>
        <time>2015-01-02T12:06:41Z</time>
      </trkpt>
      <trkpt lat="45.18185" lon="5.59167">
        <ele>1557.47</ele>
        <time>2015-01-02T12:06:54Z</time>
      </trkpt>
      <trkpt lat="45.18173" lon="5.59163">
        <ele>1557.95</ele>
        <time>2015-01-02T12:07:04Z</time>
      </trkpt>
      <trkpt lat="45.18157" lon="5.5915">
        <ele>1558.43</ele>
        <time>2015-01-02T12:07:18Z</time>
      </trkpt>
      <trkpt lat="45.18143" lon="5.59139">
        <ele>1558.92</ele>
        <time>2015-01-02T12:07:32Z</time>
      </trkpt>
      <trkpt lat="45.18132" lon="5.59134">
        <ele>1558.43</ele>
        <time>2015-01-02T12:07:43Z</time>
      </trkpt>
      <trkpt lat="45.18121" lon="5.59135">
        <ele>1558.92</ele>
        <time>2015-01-02T12:07:56Z</time>
      </trkpt>
      <trkpt lat="45.18102" lon="5.59124">
        <ele>1556.51</ele>
        <time>2015-01-02T12:08:09Z</time>
      </trkpt>
      <trkpt lat="45.18087" lon="5.59109">
        <ele>1554.59</ele>
        <time>2015-01-02T12:08:22Z</time>
      </trkpt>
      <trkpt lat="45.18072" lon="5.59095">
        <ele>1556.99</ele>
        <time>2015-01-02T12:08:35Z</time>
      </trkpt>
      <trkpt lat="45.18064" lon="5.59087">
        <ele>1556.03</ele>
        <time>2015-01-02T12:08:44Z</time>
      </trkpt>
      <trkpt lat="45.18056" lon="5.59082">
        <ele>1556.51</ele>
        <time>2015-01-02T12:08:50Z</time>
      </trkpt>
      <trkpt lat="45.18042" lon="5.5907">
        <ele>1556.03</ele>
        <time>2015-01-02T12:09:03Z</time>
      </trkpt>
      <trkpt lat="45.18014" lon="5.59049">
        <ele>1552.67</ele>
        <time>2015-01-02T12:09:17Z</time>
      </trkpt>
      <trkpt lat="45.17999" lon="5.5903">
        <ele>1551.71</ele>
        <time>2015-01-02T12:09:27Z</time>
      </trkpt>
      <trkpt lat="45.17993" lon="5.59025">
        <ele>1551.71</ele>
        <time>2015-01-02T12:09:43Z</time>
      </trkpt>
      <trkpt lat="45.17988" lon="5.59025">
        <ele>1551.71</ele>
        <time>2015-01-02T12:09:57Z</time>
      </trkpt>
      <trkpt lat="45.17988" lon="5.59025">
        <ele>1551.22</ele>
        <time>2015-01-02T12:10:27Z</time>
      </trkpt>
      <trkpt lat="45.17988" lon="5.59025">
        <ele>1551.22</ele>
        <time>2015-01-02T12:10:48Z</time>
      </trkpt>
      <trkpt lat="45.17987" lon="5.59023">
        <ele>1551.71</ele>
        <time>2015-01-02T12:11:06Z</time>
      </trkpt>
      <trkpt lat="45.17982" lon="5.59022">
        <ele>1552.67</ele>
        <time>2015-01-02T12:11:26Z</time>
      </trkpt>
      <trkpt lat="45.17982" lon="5.59022">
        <ele>1551.71</ele>
        <time>2015-01-02T12:11:42Z</time>
      </trkpt>
      <trkpt lat="45.1798" lon="5.5902">
        <ele>1552.19</ele>
        <time>2015-01-02T12:11:45Z</time>
      </trkpt>
      <trkpt lat="45.17973" lon="5.59016">
        <ele>1552.67</ele>
        <time>2015-01-02T12:11:52Z</time>
      </trkpt>
      <trkpt lat="45.17963" lon="5.5901">
        <ele>1554.11</ele>
        <time>2015-01-02T12:12:05Z</time>
      </trkpt>
      <trkpt lat="45.17954" lon="5.59007">
        <ele>1554.59</ele>
        <time>2015-01-02T12:12:14Z</time>
      </trkpt>
      <trkpt lat="45.17949" lon="5.59007">
        <ele>1555.07</ele>
        <time>2015-01-02T12:12:20Z</time>
      </trkpt>
      <trkpt lat="45.17937" lon="5.59006">
        <ele>1556.03</ele>
        <time>2015-01-02T12:12:32Z</time>
      </trkpt>
      <trkpt lat="45.17932" lon="5.59006">
        <ele>1556.99</ele>
        <time>2015-01-02T12:12:37Z</time>
      </trkpt>
      <trkpt lat="45.17923" lon="5.59005">
        <ele>1558.92</ele>
        <time>2015-01-02T12:12:48Z</time>
      </trkpt>
      <trkpt lat="45.17912" lon="5.59003">
        <ele>1559.88</ele>
        <time>2015-01-02T12:12:59Z</time>
      </trkpt>
      <trkpt lat="45.17911" lon="5.59004">
        <ele>1559.4</ele>
        <time>2015-01-02T12:13:00Z</time>
      </trkpt>
      <trkpt lat="45.17903" lon="5.59003">
        <ele>1560.84</ele>
        <time>2015-01-02T12:13:08Z</time>
      </trkpt>
      <trkpt lat="45.1789" lon="5.59002">
        <ele>1561.8</ele>
        <time>2015-01-02T12:13:22Z</time>
      </trkpt>
      <trkpt lat="45.17889" lon="5.59003">
        <ele>1562.76</ele>
        <time>2015-01-02T12:13:24Z</time>
      </trkpt>
      <trkpt lat="45.17885" lon="5.59003">
        <ele>1563.24</ele>
        <time>2015-01-02T12:13:28Z</time>
      </trkpt>
      <trkpt lat="45.17873" lon="5.59001">
        <ele>1565.16</ele>
        <time>2015-01-02T12:13:41Z</time>
      </trkpt>
      <trkpt lat="45.17862" lon="5.59001">
        <ele>1566.12</ele>
        <time>2015-01-02T12:13:52Z</time>
      </trkpt>
      <trkpt lat="45.17853" lon="5.59002">
        <ele>1566.61</ele>
        <time>2015-01-02T12:14:02Z</time>
      </trkpt>
      <trkpt lat="45.1784" lon="5.59001">
        <ele>1568.53</ele>
        <time>2015-01-02T12:14:16Z</time>
      </trkpt>
      <trkpt lat="45.17836" lon="5.59">
        <ele>1569.01</ele>
        <time>2015-01-02T12:14:25Z</time>
      </trkpt>
      <trkpt lat="45.1783" lon="5.59001">
        <ele>1568.53</ele>
        <time>2015-01-02T12:14:32Z</time>
      </trkpt>
      <trkpt lat="45.17824" lon="5.59001">
        <ele>1569.49</ele>
        <time>2015-01-02T12:14:38Z</time>
      </trkpt>
      <trkpt lat="45.17821" lon="5.59002">
        <ele>1569.01</ele>
        <time>2015-01-02T12:14:41Z</time>
      </trkpt>
      <trkpt lat="45.17811" lon="5.59">
        <ele>1570.45</ele>
        <time>2015-01-02T12:14:50Z</time>
      </trkpt>
      <trkpt lat="45.17793" lon="5.58996">
        <ele>1570.45</ele>
        <time>2015-01-02T12:15:06Z</time>
      </trkpt>
      <trkpt lat="45.1778" lon="5.58995">
        <ele>1570.93</ele>
        <time>2015-01-02T12:15:18Z</time>
      </trkpt>
      <trkpt lat="45.17771" lon="5.58995">
        <ele>1573.33</ele>
        <time>2015-01-02T12:15:28Z</time>
      </trkpt>
      <trkpt lat="45.17768" lon="5.58995">
        <ele>1573.82</ele>
        <time>2015-01-02T12:15:31Z</time>
      </trkpt>
      <trkpt lat="45.17758" lon="5.58994">
        <ele>1572.85</ele>
        <time>2015-01-02T12:15:40Z</time>
      </trkpt>
      <trkpt lat="45.17742" lon="5.58987">
        <ele>1573.82</ele>
        <time>2015-01-02T12:15:54Z</time>
      </trkpt>
      <trkpt lat="45.17727" lon="5.58981">
        <ele>1572.85</ele>
        <time>2015-01-02T12:16:05Z</time>
      </trkpt>
      <trkpt lat="45.17714" lon="5.58975">
        <ele>1573.33</ele>
        <time>2015-01-02T12:16:17Z</time>
      </trkpt>
      <trkpt lat="45.17701" lon="5.58971">
        <ele>1572.85</ele>
        <time>2015-01-02T12:16:29Z</time>
      </trkpt>
      <trkpt lat="45.17699" lon="5.58967">
        <ele>1573.82</ele>
        <time>2015-01-02T12:16:32Z</time>
      </trkpt>
      <trkpt lat="45.17684" lon="5.58958">
        <ele>1575.26</ele>
        <time>2015-01-02T12:16:48Z</time>
      </trkpt>
      <trkpt lat="45.17679" lon="5.58955">
        <ele>1576.22</ele>
        <time>2015-01-02T12:16:53Z</time>
      </trkpt>
      <trkpt lat="45.17667" lon="5.58946">
        <ele>1577.18</ele>
        <time>2015-01-02T12:17:05Z</time>
      </trkpt>
      <trkpt lat="45.17657" lon="5.58939">
        <ele>1576.7</ele>
        <time>2015-01-02T12:17:17Z</time>
      </trkpt>
      <trkpt lat="45.17652" lon="5.58937">
        <ele>1579.1</ele>
        <time>2015-01-02T12:17:24Z</time>
      </trkpt>
      <trkpt lat="45.17651" lon="5.58936">
        <ele>1578.14</ele>
        <time>2015-01-02T12:17:26Z</time>
      </trkpt>
      <trkpt lat="45.17644" lon="5.58933">
        <ele>1579.58</ele>
        <time>2015-01-02T12:17:34Z</time>
      </trkpt>
      <trkpt lat="45.17643" lon="5.58931">
        <ele>1580.06</ele>
        <time>2015-01-02T12:17:36Z</time>
      </trkpt>
      <trkpt lat="45.17638" lon="5.58929">
        <ele>1581.03</ele>
        <time>2015-01-02T12:17:41Z</time>
      </trkpt>
      <trkpt lat="45.17621" lon="5.58922">
        <ele>1580.54</ele>
        <time>2015-01-02T12:17:56Z</time>
      </trkpt>
      <trkpt lat="45.17608" lon="5.58918">
        <ele>1581.51</ele>
        <time>2015-01-02T12:18:09Z</time>
      </trkpt>
      <trkpt lat="45.17597" lon="5.58915">
        <ele>1583.43</ele>
        <time>2015-01-02T12:18:21Z</time>
      </trkpt>
      <trkpt lat="45.17596" lon="5.58915">
        <ele>1582.95</ele>
        <time>2015-01-02T12:18:22Z</time>
      </trkpt>
      <trkpt lat="45.17593" lon="5.58912">
        <ele>1583.43</ele>
        <time>2015-01-02T12:18:26Z</time>
      </trkpt>
      <trkpt lat="45.17587" lon="5.58908">
        <ele>1583.91</ele>
        <time>2015-01-02T12:18:46Z</time>
      </trkpt>
      <trkpt lat="45.17585" lon="5.58905">
        <ele>1583.43</ele>
        <time>2015-01-02T12:18:48Z</time>
      </trkpt>
      <trkpt lat="45.17557" lon="5.58883">
        <ele>1580.06</ele>
        <time>2015-01-02T12:19:00Z</time>
      </trkpt>
      <trkpt lat="45.17546" lon="5.58877">
        <ele>1580.54</ele>
        <time>2015-01-02T12:19:09Z</time>
      </trkpt>
      <trkpt lat="45.17532" lon="5.5887">
        <ele>1581.03</ele>
        <time>2015-01-02T12:19:23Z</time>
      </trkpt>
      <trkpt lat="45.17525" lon="5.58866">
        <ele>1580.54</ele>
        <time>2015-01-02T12:19:29Z</time>
      </trkpt>
      <trkpt lat="45.1752" lon="5.58863">
        <ele>1581.99</ele>
        <time>2015-01-02T12:19:33Z</time>
      </trkpt>
      <trkpt lat="45.17503" lon="5.58856">
        <ele>1581.03</ele>
        <time>2015-01-02T12:19:47Z</time>
      </trkpt>
      <trkpt lat="45.17491" lon="5.58854">
        <ele>1582.47</ele>
        <time>2015-01-02T12:19:58Z</time>
      </trkpt>
      <trkpt lat="45.17486" lon="5.58852">
        <ele>1582.95</ele>
        <time>2015-01-02T12:20:03Z</time>
      </trkpt>
      <trkpt lat="45.17468" lon="5.5884">
        <ele>1581.99</ele>
        <time>2015-01-02T12:20:15Z</time>
      </trkpt>
      <trkpt lat="45.17456" lon="5.58831">
        <ele>1581.51</ele>
        <time>2015-01-02T12:20:27Z</time>
      </trkpt>
      <trkpt lat="45.17438" lon="5.58822">
        <ele>1580.06</ele>
        <time>2015-01-02T12:20:39Z</time>
      </trkpt>
      <trkpt lat="45.17422" lon="5.58813">
        <ele>1580.54</ele>
        <time>2015-01-02T12:20:52Z</time>
      </trkpt>
      <trkpt lat="45.17398" lon="5.58808">
        <ele>1579.1</ele>
        <time>2015-01-02T12:21:07Z</time>
      </trkpt>
      <trkpt lat="45.17382" lon="5.58803">
        <ele>1578.14</ele>
        <time>2015-01-02T12:21:19Z</time>
      </trkpt>
      <trkpt lat="45.17367" lon="5.58786">
        <ele>1578.62</ele>
        <time>2015-01-02T12:21:33Z</time>
      </trkpt>
      <trkpt lat="45.17365" lon="5.58785">
        <ele>1580.06</ele>
        <time>2015-01-02T12:21:35Z</time>
      </trkpt>
      <trkpt lat="45.17363" lon="5.58782">
        <ele>1578.62</ele>
        <time>2015-01-02T12:21:49Z</time>
      </trkpt>
      <trkpt lat="45.17363" lon="5.58782">
        <ele>1578.62</ele>
        <time>2015-01-02T12:22:13Z</time>
      </trkpt>
      <trkpt lat="45.17363" lon="5.58782">
        <ele>1578.62</ele>
        <time>2015-01-02T12:22:36Z</time>
      </trkpt>
      <trkpt lat="45.17363" lon="5.58783">
        <ele>1579.1</ele>
        <time>2015-01-02T12:23:05Z</time>
      </trkpt>
      <trkpt lat="45.17363" lon="5.58783">
        <ele>1579.1</ele>
        <time>2015-01-02T12:23:18Z</time>
      </trkpt>
      <trkpt lat="45.17362" lon="5.58783">
        <ele>1579.1</ele>
        <time>2015-01-02T12:23:40Z</time>
      </trkpt>
      <trkpt lat="45.17361" lon="5.58782">
        <ele>1579.1</ele>
        <time>2015-01-02T12:23:48Z</time>
      </trkpt>
      <trkpt lat="45.17349" lon="5.58773">
        <ele>1579.58</ele>
        <time>2015-01-02T12:24:01Z</time>
      </trkpt>
      <trkpt lat="45.17338" lon="5.58769">
        <ele>1579.58</ele>
        <time>2015-01-02T12:24:12Z</time>
      </trkpt>
      <trkpt lat="45.17319" lon="5.5876">
        <ele>1579.1</ele>
        <time>2015-01-02T12:24:27Z</time>
      </trkpt>
      <trkpt lat="45.17316" lon="5.5876">
        <ele>1579.1</ele>
        <time>2015-01-02T12:24:30Z</time>
      </trkpt>
      <trkpt lat="45.17298" lon="5.58756">
        <ele>1578.62</ele>
        <time>2015-01-02T12:24:46Z</time>
      </trkpt>
      <trkpt lat="45.1728" lon="5.58746">
        <ele>1578.14</ele>
        <time>2015-01-02T12:25:00Z</time>
      </trkpt>
      <trkpt lat="45.17266" lon="5.58738">
        <ele>1577.18</ele>
        <time>2015-01-02T12:25:15Z</time>
      </trkpt>
      <trkpt lat="45.1725" lon="5.5873">
        <ele>1578.14</ele>
        <time>2015-01-02T12:25:28Z</time>
      </trkpt>
      <trkpt lat="45.17241" lon="5.58722">
        <ele>1578.14</ele>
        <time>2015-01-02T12:25:40Z</time>
      </trkpt>
      <trkpt lat="45.17229" lon="5.58713">
        <ele>1578.62</ele>
        <time>2015-01-02T12:25:54Z</time>
      </trkpt>
      <trkpt lat="45.17228" lon="5.5871">
        <ele>1578.14</ele>
        <time>2015-01-02T12:25:56Z</time>
      </trkpt>
      <trkpt lat="45.17207" lon="5.58687">
        <ele>1574.78</ele>
        <time>2015-01-02T12:26:06Z</time>
      </trkpt>
      <trkpt lat="45.17194" lon="5.58679">
        <ele>1573.33</ele>
        <time>2015-01-02T12:26:10Z</time>
      </trkpt>
      <trkpt lat="45.17168" lon="5.58674">
        <ele>1570.45</ele>
        <time>2015-01-02T12:26:17Z</time>
      </trkpt>
      <trkpt lat="45.17146" lon="5.58677">
        <ele>1567.57</ele>
        <time>2015-01-02T12:26:23Z</time>
      </trkpt>
      <trkpt lat="45.17119" lon="5.58672">
        <ele>1564.2</ele>
        <time>2015-01-02T12:26:32Z</time>
      </trkpt>
      <trkpt lat="45.17089" lon="5.58669">
        <ele>1563.24</ele>
        <time>2015-01-02T12:26:44Z</time>
      </trkpt>
      <trkpt lat="45.17074" lon="5.58674">
        <ele>1562.76</ele>
        <time>2015-01-02T12:26:59Z</time>
      </trkpt>
      <trkpt lat="45.17058" lon="5.58684">
        <ele>1561.32</ele>
        <time>2015-01-02T12:27:13Z</time>
      </trkpt>
      <trkpt lat="45.17054" lon="5.58685">
        <ele>1560.84</ele>
        <time>2015-01-02T12:27:16Z</time>
      </trkpt>
      <trkpt lat="45.17023" lon="5.58697">
        <ele>1556.99</ele>
        <time>2015-01-02T12:27:29Z</time>
      </trkpt>
      <trkpt lat="45.1702" lon="5.58696">
        <ele>1556.99</ele>
        <time>2015-01-02T12:27:30Z</time>
      </trkpt>
      <trkpt lat="45.17" lon="5.58681">
        <ele>1555.55</ele>
        <time>2015-01-02T12:27:45Z</time>
      </trkpt>
      <trkpt lat="45.16991" lon="5.58675">
        <ele>1554.59</ele>
        <time>2015-01-02T12:27:50Z</time>
      </trkpt>
      <trkpt lat="45.16955" lon="5.58669">
        <ele>1551.22</ele>
        <time>2015-01-02T12:28:01Z</time>
      </trkpt>
      <trkpt lat="45.16925" lon="5.58674">
        <ele>1547.38</ele>
        <time>2015-01-02T12:28:16Z</time>
      </trkpt>
      <trkpt lat="45.16903" lon="5.58675">
        <ele>1545.94</ele>
        <time>2015-01-02T12:28:29Z</time>
      </trkpt>
      <trkpt lat="45.16898" lon="5.58675">
        <ele>1545.46</ele>
        <time>2015-01-02T12:28:45Z</time>
      </trkpt>
      <trkpt lat="45.16881" lon="5.58679">
        <ele>1541.61</ele>
        <time>2015-01-02T12:28:53Z</time>
      </trkpt>
      <trkpt lat="45.16873" lon="5.58678">
        <ele>1540.65</ele>
        <time>2015-01-02T12:28:55Z</time>
      </trkpt>
      <trkpt lat="45.16859" lon="5.58674">
        <ele>1538.25</ele>
        <time>2015-01-02T12:29:04Z</time>
      </trkpt>
      <trkpt lat="45.16855" lon="5.58675">
        <ele>1537.77</ele>
        <time>2015-01-02T12:29:07Z</time>
      </trkpt>
      <trkpt lat="45.16833" lon="5.5867">
        <ele>1533.92</ele>
        <time>2015-01-02T12:29:20Z</time>
      </trkpt>
      <trkpt lat="45.16825" lon="5.58666">
        <ele>1533.92</ele>
        <time>2015-01-02T12:29:30Z</time>
      </trkpt>
      <trkpt lat="45.16824" lon="5.58665">
        <ele>1533.44</ele>
        <time>2015-01-02T12:29:31Z</time>
      </trkpt>
      <trkpt lat="45.16821" lon="5.58665">
        <ele>1533.92</ele>
        <time>2015-01-02T12:29:33Z</time>
      </trkpt>
      <trkpt lat="45.16811" lon="5.58658">
        <ele>1532.48</ele>
        <time>2015-01-02T12:29:43Z</time>
      </trkpt>
      <trkpt lat="45.16804" lon="5.58649">
        <ele>1530.56</ele>
        <time>2015-01-02T12:29:50Z</time>
      </trkpt>
      <trkpt lat="45.16796" lon="5.58649">
        <ele>1530.56</ele>
        <time>2015-01-02T12:29:55Z</time>
      </trkpt>
      <trkpt lat="45.16777" lon="5.58654">
        <ele>1527.67</ele>
        <time>2015-01-02T12:30:01Z</time>
      </trkpt>
      <trkpt lat="45.1676" lon="5.58654">
        <ele>1524.79</ele>
        <time>2015-01-02T12:30:06Z</time>
      </trkpt>
      <trkpt lat="45.16757" lon="5.58653">
        <ele>1524.31</ele>
        <time>2015-01-02T12:30:07Z</time>
      </trkpt>
      <trkpt lat="45.16751" lon="5.5865">
        <ele>1524.79</ele>
        <time>2015-01-02T12:30:10Z</time>
      </trkpt>
      <trkpt lat="45.16726" lon="5.58643">
        <ele>1521.9</ele>
        <time>2015-01-02T12:30:21Z</time>
      </trkpt>
      <trkpt lat="45.16709" lon="5.58646">
        <ele>1519.02</ele>
        <time>2015-01-02T12:30:26Z</time>
      </trkpt>
      <trkpt lat="45.16692" lon="5.58651">
        <ele>1515.66</ele>
        <time>2015-01-02T12:30:31Z</time>
      </trkpt>
      <trkpt lat="45.16661" lon="5.58649">
        <ele>1512.77</ele>
        <time>2015-01-02T12:30:40Z</time>
      </trkpt>
      <trkpt lat="45.16648" lon="5.58652">
        <ele>1510.85</ele>
        <time>2015-01-02T12:30:44Z</time>
      </trkpt>
      <trkpt lat="45.16638" lon="5.58653">
        <ele>1509.41</ele>
        <time>2015-01-02T12:30:47Z</time>
      </trkpt>
      <trkpt lat="45.16626" lon="5.58654">
        <ele>1507.48</ele>
        <time>2015-01-02T12:30:51Z</time>
      </trkpt>
      <trkpt lat="45.16598" lon="5.58655">
        <ele>1504.12</ele>
        <time>2015-01-02T12:31:02Z</time>
      </trkpt>
      <trkpt lat="45.16581" lon="5.58658">
        <ele>1502.2</ele>
        <time>2015-01-02T12:31:07Z</time>
      </trkpt>
      <trkpt lat="45.16568" lon="5.58662">
        <ele>1500.27</ele>
        <time>2015-01-02T12:31:11Z</time>
      </trkpt>
      <trkpt lat="45.16556" lon="5.58667">
        <ele>1498.83</ele>
        <time>2015-01-02T12:31:16Z</time>
      </trkpt>
      <trkpt lat="45.16538" lon="5.58669">
        <ele>1495.47</ele>
        <time>2015-01-02T12:31:23Z</time>
      </trkpt>
      <trkpt lat="45.16514" lon="5.58672">
        <ele>1492.1</ele>
        <time>2015-01-02T12:31:32Z</time>
      </trkpt>
      <trkpt lat="45.16495" lon="5.58673">
        <ele>1488.74</ele>
        <time>2015-01-02T12:31:41Z</time>
      </trkpt>
      <trkpt lat="45.16483" lon="5.58675">
        <ele>1485.37</ele>
        <time>2015-01-02T12:31:46Z</time>
      </trkpt>
      <trkpt lat="45.1648" lon="5.58676">
        <ele>1485.37</ele>
        <time>2015-01-02T12:31:47Z</time>
      </trkpt>
      <trkpt lat="45.16474" lon="5.58676">
        <ele>1483.45</ele>
        <time>2015-01-02T12:31:54Z</time>
      </trkpt>
      <trkpt lat="45.1647" lon="5.58677">
        <ele>1483.45</ele>
        <time>2015-01-02T12:31:56Z</time>
      </trkpt>
      <trkpt lat="45.16465" lon="5.58678">
        <ele>1481.53</ele>
        <time>2015-01-02T12:32:01Z</time>
      </trkpt>
      <trkpt lat="45.16454" lon="5.58691">
        <ele>1478.65</ele>
        <time>2015-01-02T12:32:06Z</time>
      </trkpt>
      <trkpt lat="45.1645" lon="5.58693">
        <ele>1477.68</ele>
        <time>2015-01-02T12:32:07Z</time>
      </trkpt>
      <trkpt lat="45.16445" lon="5.58695">
        <ele>1476.24</ele>
        <time>2015-01-02T12:32:08Z</time>
      </trkpt>
      <trkpt lat="45.16441" lon="5.58696">
        <ele>1473.84</ele>
        <time>2015-01-02T12:32:10Z</time>
      </trkpt>
      <trkpt lat="45.16439" lon="5.58696">
        <ele>1473.36</ele>
        <time>2015-01-02T12:32:16Z</time>
      </trkpt>
      <trkpt lat="45.16437" lon="5.58697">
        <ele>1472.88</ele>
        <time>2015-01-02T12:32:17Z</time>
      </trkpt>
      <trkpt lat="45.16434" lon="5.58698">
        <ele>1471.92</ele>
        <time>2015-01-02T12:32:19Z</time>
      </trkpt>
      <trkpt lat="45.16416" lon="5.58698">
        <ele>1468.07</ele>
        <time>2015-01-02T12:32:28Z</time>
      </trkpt>
      <trkpt lat="45.16404" lon="5.58701">
        <ele>1464.71</ele>
        <time>2015-01-02T12:32:35Z</time>
      </trkpt>
      <trkpt lat="45.16392" lon="5.58708">
        <ele>1461.82</ele>
        <time>2015-01-02T12:32:39Z</time>
      </trkpt>
      <trkpt lat="45.16384" lon="5.58712">
        <ele>1458.46</ele>
        <time>2015-01-02T12:32:45Z</time>
      </trkpt>
      <trkpt lat="45.16384" lon="5.58713">
        <ele>1464.23</ele>
        <time>2015-01-02T12:32:46Z</time>
      </trkpt>
      <trkpt lat="45.16383" lon="5.58713">
        <ele>1462.3</ele>
        <time>2015-01-02T12:32:47Z</time>
      </trkpt>
      <trkpt lat="45.16384" lon="5.58713">
        <ele>1461.34</ele>
        <time>2015-01-02T12:33:04Z</time>
      </trkpt>
      <trkpt lat="45.16388" lon="5.58711">
        <ele>1460.86</ele>
        <time>2015-01-02T12:33:09Z</time>
      </trkpt>
      <trkpt lat="45.16383" lon="5.58711">
        <ele>1457.98</ele>
        <time>2015-01-02T12:33:14Z</time>
      </trkpt>
      <trkpt lat="45.16377" lon="5.5871">
        <ele>1454.61</ele>
        <time>2015-01-02T12:33:29Z</time>
      </trkpt>
      <trkpt lat="45.16376" lon="5.5871">
        <ele>1453.17</ele>
        <time>2015-01-02T12:33:50Z</time>
      </trkpt>
      <trkpt lat="45.16376" lon="5.58709">
        <ele>1451.25</ele>
        <time>2015-01-02T12:34:13Z</time>
      </trkpt>
      <trkpt lat="45.1636" lon="5.58717">
        <ele>1447.88</ele>
        <time>2015-01-02T12:34:18Z</time>
      </trkpt>
      <trkpt lat="45.1635" lon="5.5872">
        <ele>1445</ele>
        <time>2015-01-02T12:34:21Z</time>
      </trkpt>
      <trkpt lat="45.16324" lon="5.58722">
        <ele>1440.67</ele>
        <time>2015-01-02T12:34:27Z</time>
      </trkpt>
      <trkpt lat="45.16319" lon="5.58724">
        <ele>1439.71</ele>
        <time>2015-01-02T12:34:28Z</time>
      </trkpt>
      <trkpt lat="45.16312" lon="5.58729">
        <ele>1438.27</ele>
        <time>2015-01-02T12:34:30Z</time>
      </trkpt>
      <trkpt lat="45.1631" lon="5.58733">
        <ele>1437.31</ele>
        <time>2015-01-02T12:34:31Z</time>
      </trkpt>
      <trkpt lat="45.16308" lon="5.58737">
        <ele>1436.83</ele>
        <time>2015-01-02T12:34:41Z</time>
      </trkpt>
      <trkpt lat="45.16308" lon="5.58737">
        <ele>1436.35</ele>
        <time>2015-01-02T12:35:07Z</time>
      </trkpt>
      <trkpt lat="45.16307" lon="5.58739">
        <ele>1436.83</ele>
        <time>2015-01-02T12:35:35Z</time>
      </trkpt>
      <trkpt lat="45.16306" lon="5.58741">
        <ele>1436.35</ele>
        <time>2015-01-02T12:35:36Z</time>
      </trkpt>
      <trkpt lat="45.16305" lon="5.58744">
        <ele>1435.87</ele>
        <time>2015-01-02T12:35:37Z</time>
      </trkpt>
      <trkpt lat="45.16304" lon="5.58748">
        <ele>1435.39</ele>
        <time>2015-01-02T12:35:38Z</time>
      </trkpt>
      <trkpt lat="45.16305" lon="5.58753">
        <ele>1434.42</ele>
        <time>2015-01-02T12:35:39Z</time>
      </trkpt>
      <trkpt lat="45.16306" lon="5.58757">
        <ele>1433.94</ele>
        <time>2015-01-02T12:35:40Z</time>
      </trkpt>
      <trkpt lat="45.16307" lon="5.58761">
        <ele>1433.94</ele>
        <time>2015-01-02T12:35:41Z</time>
      </trkpt>
      <trkpt lat="45.16309" lon="5.58764">
        <ele>1433.46</ele>
        <time>2015-01-02T12:35:51Z</time>
      </trkpt>
      <trkpt lat="45.16309" lon="5.58764">
        <ele>1433.46</ele>
        <time>2015-01-02T12:36:18Z</time>
      </trkpt>
      <trkpt lat="45.16309" lon="5.58765">
        <ele>1433.46</ele>
        <time>2015-01-02T12:36:38Z</time>
      </trkpt>
      <trkpt lat="45.16309" lon="5.58765">
        <ele>1433.46</ele>
        <time>2015-01-02T12:37:10Z</time>
      </trkpt>
      <trkpt lat="45.16309" lon="5.58765">
        <ele>1433.46</ele>
        <time>2015-01-02T12:37:29Z</time>
      </trkpt>
      <trkpt lat="45.1631" lon="5.58766">
        <ele>1432.98</ele>
        <time>2015-01-02T12:37:49Z</time>
      </trkpt>
      <trkpt lat="45.16311" lon="5.58767">
        <ele>1432.98</ele>
        <time>2015-01-02T12:37:50Z</time>
      </trkpt>
      <trkpt lat="45.16335" lon="5.5879">
        <ele>1430.1</ele>
        <time>2015-01-02T12:38:03Z</time>
      </trkpt>
      <trkpt lat="45.1635" lon="5.58819">
        <ele>1426.73</ele>
        <time>2015-01-02T12:38:11Z</time>
      </trkpt>
      <trkpt lat="45.16364" lon="5.58851">
        <ele>1423.37</ele>
        <time>2015-01-02T12:38:17Z</time>
      </trkpt>
      <trkpt lat="45.16373" lon="5.58871">
        <ele>1421.93</ele>
        <time>2015-01-02T12:38:21Z</time>
      </trkpt>
      <trkpt lat="45.16386" lon="5.58898">
        <ele>1418.56</ele>
        <time>2015-01-02T12:38:27Z</time>
      </trkpt>
      <trkpt lat="45.16405" lon="5.58918">
        <ele>1415.68</ele>
        <time>2015-01-02T12:38:33Z</time>
      </trkpt>
      <trkpt lat="45.16427" lon="5.58961">
        <ele>1412.31</ele>
        <time>2015-01-02T12:38:42Z</time>
      </trkpt>
      <trkpt lat="45.16435" lon="5.58976">
        <ele>1410.87</ele>
        <time>2015-01-02T12:38:45Z</time>
      </trkpt>
      <trkpt lat="45.16441" lon="5.5899">
        <ele>1408.95</ele>
        <time>2015-01-02T12:38:48Z</time>
      </trkpt>
      <trkpt lat="45.16458" lon="5.59026">
        <ele>1406.07</ele>
        <time>2015-01-02T12:38:55Z</time>
      </trkpt>
      <trkpt lat="45.16479" lon="5.59054">
        <ele>1402.7</ele>
        <time>2015-01-02T12:39:02Z</time>
      </trkpt>
      <trkpt lat="45.16492" lon="5.59076">
        <ele>1400.3</ele>
        <time>2015-01-02T12:39:07Z</time>
      </trkpt>
      <trkpt lat="45.165" lon="5.59099">
        <ele>1398.37</ele>
        <time>2015-01-02T12:39:12Z</time>
      </trkpt>
      <trkpt lat="45.16523" lon="5.59136">
        <ele>1395.01</ele>
        <time>2015-01-02T12:39:22Z</time>
      </trkpt>
      <trkpt lat="45.16513" lon="5.59154">
        <ele>1393.57</ele>
        <time>2015-01-02T12:39:29Z</time>
      </trkpt>
      <trkpt lat="45.16482" lon="5.59211">
        <ele>1390.68</ele>
        <time>2015-01-02T12:39:45Z</time>
      </trkpt>
      <trkpt lat="45.16469" lon="5.59242">
        <ele>1389.24</ele>
        <time>2015-01-02T12:39:58Z</time>
      </trkpt>
      <trkpt lat="45.16453" lon="5.59254">
        <ele>1387.32</ele>
        <time>2015-01-02T12:40:04Z</time>
      </trkpt>
      <trkpt lat="45.16437" lon="5.5927">
        <ele>1384.44</ele>
        <time>2015-01-02T12:40:10Z</time>
      </trkpt>
      <trkpt lat="45.1642" lon="5.59294">
        <ele>1381.55</ele>
        <time>2015-01-02T12:40:16Z</time>
      </trkpt>
      <trkpt lat="45.16406" lon="5.59317">
        <ele>1380.11</ele>
        <time>2015-01-02T12:40:27Z</time>
      </trkpt>
      <trkpt lat="45.16406" lon="5.59318">
        <ele>1380.11</ele>
        <time>2015-01-02T12:40:41Z</time>
      </trkpt>
      <trkpt lat="45.16404" lon="5.59319">
        <ele>1379.63</ele>
        <time>2015-01-02T12:40:43Z</time>
      </trkpt>
      <trkpt lat="45.16384" lon="5.5932">
        <ele>1376.26</ele>
        <time>2015-01-02T12:40:51Z</time>
      </trkpt>
      <trkpt lat="45.16366" lon="5.59319">
        <ele>1372.42</ele>
        <time>2015-01-02T12:40:56Z</time>
      </trkpt>
      <trkpt lat="45.16349" lon="5.59322">
        <ele>1369.05</ele>
        <time>2015-01-02T12:41:01Z</time>
      </trkpt>
      <trkpt lat="45.16331" lon="5.59321">
        <ele>1365.69</ele>
        <time>2015-01-02T12:41:06Z</time>
      </trkpt>
      <trkpt lat="45.16311" lon="5.59314">
        <ele>1362.33</ele>
        <time>2015-01-02T12:41:11Z</time>
      </trkpt>
      <trkpt lat="45.16294" lon="5.5931">
        <ele>1358.96</ele>
        <time>2015-01-02T12:41:15Z</time>
      </trkpt>
      <trkpt lat="45.16275" lon="5.59301">
        <ele>1356.08</ele>
        <time>2015-01-02T12:41:20Z</time>
      </trkpt>
      <trkpt lat="45.16254" lon="5.59294">
        <ele>1352.23</ele>
        <time>2015-01-02T12:41:25Z</time>
      </trkpt>
      <trkpt lat="45.1623" lon="5.59282">
        <ele>1348.39</ele>
        <time>2015-01-02T12:41:30Z</time>
      </trkpt>
      <trkpt lat="45.16212" lon="5.59271">
        <ele>1345.5</ele>
        <time>2015-01-02T12:41:34Z</time>
      </trkpt>
      <trkpt lat="45.16195" lon="5.5926">
        <ele>1342.14</ele>
        <time>2015-01-02T12:41:38Z</time>
      </trkpt>
      <trkpt lat="45.16176" lon="5.59244">
        <ele>1339.25</ele>
        <time>2015-01-02T12:41:42Z</time>
      </trkpt>
      <trkpt lat="45.16152" lon="5.59232">
        <ele>1335.89</ele>
        <time>2015-01-02T12:41:47Z</time>
      </trkpt>
      <trkpt lat="45.16137" lon="5.59231">
        <ele>1333.97</ele>
        <time>2015-01-02T12:41:52Z</time>
      </trkpt>
      <trkpt lat="45.16129" lon="5.59231">
        <ele>1332.52</ele>
        <time>2015-01-02T12:41:55Z</time>
      </trkpt>
      <trkpt lat="45.16111" lon="5.5923">
        <ele>1329.16</ele>
        <time>2015-01-02T12:42:01Z</time>
      </trkpt>
      <trkpt lat="45.16104" lon="5.59225">
        <ele>1327.24</ele>
        <time>2015-01-02T12:42:04Z</time>
      </trkpt>
      <trkpt lat="45.1609" lon="5.59222">
        <ele>1324.83</ele>
        <time>2015-01-02T12:42:09Z</time>
      </trkpt>
      <trkpt lat="45.16083" lon="5.59224">
        <ele>1323.39</ele>
        <time>2015-01-02T12:42:11Z</time>
      </trkpt>
      <trkpt lat="45.1606" lon="5.59227">
        <ele>1320.99</ele>
        <time>2015-01-02T12:42:17Z</time>
      </trkpt>
      <trkpt lat="45.16035" lon="5.59217">
        <ele>1318.1</ele>
        <time>2015-01-02T12:42:24Z</time>
      </trkpt>
      <trkpt lat="45.16023" lon="5.59209">
        <ele>1316.66</ele>
        <time>2015-01-02T12:42:28Z</time>
      </trkpt>
      <trkpt lat="45.16015" lon="5.59226">
        <ele>1314.26</ele>
        <time>2015-01-02T12:42:37Z</time>
      </trkpt>
      <trkpt lat="45.16033" lon="5.59252">
        <ele>1310.9</ele>
        <time>2015-01-02T12:42:46Z</time>
      </trkpt>
      <trkpt lat="45.16051" lon="5.5927">
        <ele>1307.53</ele>
        <time>2015-01-02T12:42:52Z</time>
      </trkpt>
      <trkpt lat="45.16065" lon="5.5928">
        <ele>1304.65</ele>
        <time>2015-01-02T12:42:57Z</time>
      </trkpt>
      <trkpt lat="45.16072" lon="5.59284">
        <ele>1303.2</ele>
        <time>2015-01-02T12:43:00Z</time>
      </trkpt>
      <trkpt lat="45.16089" lon="5.59296">
        <ele>1299.84</ele>
        <time>2015-01-02T12:43:07Z</time>
      </trkpt>
      <trkpt lat="45.16091" lon="5.59298">
        <ele>1298.88</ele>
        <time>2015-01-02T12:43:08Z</time>
      </trkpt>
      <trkpt lat="45.16111" lon="5.59314">
        <ele>1295.99</ele>
        <time>2015-01-02T12:43:15Z</time>
      </trkpt>
      <trkpt lat="45.16135" lon="5.5933">
        <ele>1293.11</ele>
        <time>2015-01-02T12:43:21Z</time>
      </trkpt>
      <trkpt lat="45.1615" lon="5.59366">
        <ele>1290.23</ele>
        <time>2015-01-02T12:43:29Z</time>
      </trkpt>
      <trkpt lat="45.16163" lon="5.59404">
        <ele>1286.86</ele>
        <time>2015-01-02T12:43:40Z</time>
      </trkpt>
      <trkpt lat="45.16165" lon="5.59415">
        <ele>1284.94</ele>
        <time>2015-01-02T12:43:45Z</time>
      </trkpt>
      <trkpt lat="45.16165" lon="5.59441">
        <ele>1280.61</ele>
        <time>2015-01-02T12:43:52Z</time>
      </trkpt>
      <trkpt lat="45.16192" lon="5.59486">
        <ele>1277.73</ele>
        <time>2015-01-02T12:43:58Z</time>
      </trkpt>
      <trkpt lat="45.16217" lon="5.59518">
        <ele>1274.85</ele>
        <time>2015-01-02T12:44:05Z</time>
      </trkpt>
      <trkpt lat="45.16235" lon="5.59532">
        <ele>1272.44</ele>
        <time>2015-01-02T12:44:11Z</time>
      </trkpt>
      <trkpt lat="45.16257" lon="5.59543">
        <ele>1269.56</ele>
        <time>2015-01-02T12:44:19Z</time>
      </trkpt>
      <trkpt lat="45.16282" lon="5.59557">
        <ele>1266.67</ele>
        <time>2015-01-02T12:44:26Z</time>
      </trkpt>
      <trkpt lat="45.16293" lon="5.59573">
        <ele>1264.75</ele>
        <time>2015-01-02T12:44:29Z</time>
      </trkpt>
      <trkpt lat="45.16307" lon="5.59595">
        <ele>1262.35</ele>
        <time>2015-01-02T12:44:35Z</time>
      </trkpt>
      <trkpt lat="45.16309" lon="5.59596">
        <ele>1262.35</ele>
        <time>2015-01-02T12:44:39Z</time>
      </trkpt>
      <trkpt lat="45.16319" lon="5.5961">
        <ele>1260.91</ele>
        <time>2015-01-02T12:44:47Z</time>
      </trkpt>
      <trkpt lat="45.16342" lon="5.59643">
        <ele>1257.06</ele>
        <time>2015-01-02T12:44:59Z</time>
      </trkpt>
      <trkpt lat="45.16349" lon="5.59656">
        <ele>1256.1</ele>
        <time>2015-01-02T12:45:02Z</time>
      </trkpt>
      <trkpt lat="45.16357" lon="5.59673">
        <ele>1254.18</ele>
        <time>2015-01-02T12:45:06Z</time>
      </trkpt>
      <trkpt lat="45.16373" lon="5.59701">
        <ele>1250.81</ele>
        <time>2015-01-02T12:45:13Z</time>
      </trkpt>
      <trkpt lat="45.16381" lon="5.59718">
        <ele>1248.41</ele>
        <time>2015-01-02T12:45:22Z</time>
      </trkpt>
      <trkpt lat="45.16381" lon="5.59718">
        <ele>1243.12</ele>
        <time>2015-01-02T12:45:30Z</time>
      </trkpt>
      <trkpt lat="45.16381" lon="5.59718">
        <ele>1250.81</ele>
        <time>2015-01-02T12:45:31Z</time>
      </trkpt>
      <trkpt lat="45.16381" lon="5.59718">
        <ele>1247.45</ele>
        <time>2015-01-02T12:45:47Z</time>
      </trkpt>
      <trkpt lat="45.16381" lon="5.59719">
        <ele>1248.41</ele>
        <time>2015-01-02T12:46:05Z</time>
      </trkpt>
      <trkpt lat="45.1638" lon="5.59718">
        <ele>1248.41</ele>
        <time>2015-01-02T12:46:21Z</time>
      </trkpt>
      <trkpt lat="45.1638" lon="5.59718">
        <ele>1248.41</ele>
        <time>2015-01-02T12:46:39Z</time>
      </trkpt>
      <trkpt lat="45.1638" lon="5.59718">
        <ele>1245.04</ele>
        <time>2015-01-02T12:46:50Z</time>
      </trkpt>
      <trkpt lat="45.16381" lon="5.59718">
        <ele>1250.33</ele>
        <time>2015-01-02T12:46:51Z</time>
      </trkpt>
      <trkpt lat="45.16387" lon="5.59729">
        <ele>1247.45</ele>
        <time>2015-01-02T12:47:03Z</time>
      </trkpt>
      <trkpt lat="45.16385" lon="5.59737">
        <ele>1246.49</ele>
        <time>2015-01-02T12:47:11Z</time>
      </trkpt>
      <trkpt lat="45.16373" lon="5.59745">
        <ele>1244.56</ele>
        <time>2015-01-02T12:47:24Z</time>
      </trkpt>
      <trkpt lat="45.16371" lon="5.59746">
        <ele>1244.56</ele>
        <time>2015-01-02T12:47:26Z</time>
      </trkpt>
      <trkpt lat="45.16369" lon="5.59754">
        <ele>1243.6</ele>
        <time>2015-01-02T12:47:39Z</time>
      </trkpt>
      <trkpt lat="45.16368" lon="5.59754">
        <ele>1243.12</ele>
        <time>2015-01-02T12:47:56Z</time>
      </trkpt>
      <trkpt lat="45.16368" lon="5.59754">
        <ele>1243.6</ele>
        <time>2015-01-02T12:48:01Z</time>
      </trkpt>
      <trkpt lat="45.16368" lon="5.59754">
        <ele>1243.12</ele>
        <time>2015-01-02T12:48:24Z</time>
      </trkpt>
      <trkpt lat="45.16367" lon="5.59754">
        <ele>1243.12</ele>
        <time>2015-01-02T12:48:39Z</time>
      </trkpt>
      <trkpt lat="45.16367" lon="5.59754">
        <ele>1242.16</ele>
        <time>2015-01-02T12:48:43Z</time>
      </trkpt>
      <trkpt lat="45.16367" lon="5.59754">
        <ele>1243.12</ele>
        <time>2015-01-02T12:49:07Z</time>
      </trkpt>
      <trkpt lat="45.16367" lon="5.59754">
        <ele>1242.64</ele>
        <time>2015-01-02T12:49:29Z</time>
      </trkpt>
      <trkpt lat="45.16367" lon="5.59754">
        <ele>1242.64</ele>
        <time>2015-01-02T12:49:58Z</time>
      </trkpt>
      <trkpt lat="45.16367" lon="5.59754">
        <ele>1243.12</ele>
        <time>2015-01-02T12:50:28Z</time>
      </trkpt>
    </trkseg>
  </trk>
</gpx>